Time,TemperatureF,DewpointF,PressureIn,WindDirection,WindDirectionDegrees,WindSpeedMPH,WindSpeedGustMPH,Humidity,HourlyPrecipIn,Conditions,Clouds,dailyrainin,SoftwareType,DateUTC
2013-01-10 00:00:00,45.6,45.1,30.59,WSW,257,0.0,0.0,98,0.00,,,0.00,Wunderground v.1.15,2013-01-10 05:00:00,
2013-01-10 00:01:00,45.6,45.1,30.59,WSW,257,0.0,0.0,98,0.00,,,0.00,Wunderground v.1.15,2013-01-10 05:01:00,
2013-01-10 00:05:00,45.6,45.1,30.59,WSW,257,0.0,0.0,98,0.00,,,0.00,Wunderground v.1.15,2013-01-10 05:05:00,
2013-01-10 00:06:00,45.6,45.1,30.59,WSW,257,0.0,0.0,98,0.00,,,0.00,Wunderground v.1.15,2013-01-10 05:06:00,
2013-01-10 00:10:00,45.7,45.2,30.59,WSW,257,0.0,0.0,98,0.00,,,0.00,Wunderground v.1.15,2013-01-10 05:10:00,
2013-01-10 00:11:00,45.7,45.2,30.59,WSW,257,0.0,0.0,98,0.00,,,0.00,Wunderground v.1.15,2013-01-10 05:11:00,
2013-01-10 00:13:00,45.7,45.2,30.59,WSW,257,0.0,0.0,98,0.00,,,0.00,Wunderground v.1.15,2013-01-10 05:13:00,
2013-01-10 00:16:00,45.7,45.2,30.59,WSW,257,0.0,0.0,98,0.00,,,0.00,Wunderground v.1.15,2013-01-10 05:16:00,
2013-01-10 00:17:00,45.7,45.2,30.59,WSW,257,0.0,0.0,98,0.00,,,0.00,Wunderground v.1.15,2013-01-10 05:17:00,
2013-01-10 00:19:00,45.7,45.2,30.59,WSW,257,0.0,0.0,98,0.00,,,0.00,Wunderground v.1.15,2013-01-10 05:19:00,
2013-01-10 00:22:00,45.6,45.1,30.59,WSW,257,0.0,0.0,98,0.00,,,0.00,Wunderground v.1.15,2013-01-10 05:22:00,
2013-01-10 00:23:00,45.5,44.7,30.59,WSW,257,0.0,0.0,97,0.00,,,0.00,Wunderground v.1.15,2013-01-10 05:23:00,
2013-01-10 00:24:00,45.5,44.7,30.59,WSW,257,0.0,0.0,97,0.00,,,0.00,Wunderground v.1.15,2013-01-10 05:24:00,
2013-01-10 00:28:00,45.3,44.5,30.59,WSW,257,0.0,0.0,97,0.00,,,0.00,Wunderground v.1.15,2013-01-10 05:28:00,
2013-01-10 00:30:00,45.2,44.4,30.59,WSW,257,0.0,0.0,97,0.00,,,0.00,Wunderground v.1.15,2013-01-10 05:30:00,
2013-01-10 00:31:00,45.2,44.4,30.59,WSW,257,0.0,0.0,97,0.00,,,0.00,Wunderground v.1.15,2013-01-10 05:31:00,
2013-01-10 00:32:00,45.1,44.3,30.59,WSW,257,0.0,0.0,97,0.00,,,0.00,Wunderground v.1.15,2013-01-10 05:32:00,
2013-01-10 00:34:00,45.0,44.2,30.59,WSW,257,0.0,0.0,97,0.00,,,0.00,Wunderground v.1.15,2013-01-10 05:34:00,
2013-01-10 00:37:00,44.9,44.1,30.59,East,80,0.0,0.0,97,0.00,,,0.00,Wunderground v.1.15,2013-01-10 05:37:00,
2013-01-10 00:38:00,44.8,44.0,30.59,East,80,0.0,0.0,97,0.00,,,0.00,Wunderground v.1.15,2013-01-10 05:38:00,
2013-01-10 00:39:00,44.8,44.0,30.59,East,80,0.0,0.0,97,0.00,,,0.00,Wunderground v.1.15,2013-01-10 05:39:00,
2013-01-10 00:43:00,44.6,43.8,30.59,East,94,0.0,0.0,97,0.00,,,0.00,Wunderground v.1.15,2013-01-10 05:43:00,
2013-01-10 00:44:00,44.6,43.8,30.59,East,94,0.0,0.0,97,0.00,,,0.00,Wunderground v.1.15,2013-01-10 05:44:00,
2013-01-10 00:45:00,44.6,43.8,30.59,East,94,0.0,0.0,97,0.00,,,0.00,Wunderground v.1.15,2013-01-10 05:45:00,
2013-01-10 00:48:00,44.6,43.8,30.59,East,94,0.0,0.0,97,0.00,,,0.00,Wunderground v.1.15,2013-01-10 05:48:00,
2013-01-10 00:49:00,44.5,43.7,30.59,East,94,0.0,0.0,97,0.00,,,0.00,Wunderground v.1.15,2013-01-10 05:49:00,
2013-01-10 00:51:00,44.5,43.7,30.59,East,94,0.0,0.0,97,0.00,,,0.00,Wunderground v.1.15,2013-01-10 05:51:00,
2013-01-10 00:54:00,44.5,43.7,30.59,East,94,0.0,0.0,97,0.00,,,0.00,Wunderground v.1.15,2013-01-10 05:54:00,
2013-01-10 00:55:00,44.4,43.6,30.59,East,94,0.0,0.0,97,0.00,,,0.00,Wunderground v.1.15,2013-01-10 05:55:00,
2013-01-10 00:56:00,44.4,43.6,30.59,East,94,0.0,0.0,97,0.00,,,0.00,Wunderground v.1.15,2013-01-10 05:56:00,
2013-01-10 01:00:00,44.2,43.4,30.59,East,94,0.0,0.0,97,0.00,,,0.00,Wunderground v.1.15,2013-01-10 06:00:00,
2013-01-10 01:01:00,44.2,43.4,30.59,East,94,0.0,0.0,97,0.00,,,0.00,Wunderground v.1.15,2013-01-10 06:01:00,
2013-01-10 01:02:00,44.1,43.3,30.59,East,94,0.0,0.0,97,0.00,,,0.00,Wunderground v.1.15,2013-01-10 06:02:00,
2013-01-10 01:05:00,44.0,43.2,30.59,East,94,0.0,0.0,97,0.00,,,0.00,Wunderground v.1.15,2013-01-10 06:05:00,
2013-01-10 01:07:00,43.9,43.1,30.58,East,94,0.0,0.0,97,0.00,,,0.00,Wunderground v.1.15,2013-01-10 06:07:00,
2013-01-10 01:08:00,43.8,43.0,30.58,East,94,0.0,0.0,97,0.00,,,0.00,Wunderground v.1.15,2013-01-10 06:08:00,
2013-01-10 01:10:00,43.7,42.9,30.58,East,94,0.0,0.0,97,0.00,,,0.00,Wunderground v.1.15,2013-01-10 06:10:00,
2013-01-10 01:11:00,43.7,42.9,30.58,East,94,0.0,0.0,97,0.00,,,0.00,Wunderground v.1.15,2013-01-10 06:11:00,
2013-01-10 01:12:00,43.7,42.9,30.58,East,94,0.0,0.0,97,0.00,,,0.00,Wunderground v.1.15,2013-01-10 06:12:00,
2013-01-10 01:15:00,43.7,42.9,30.58,East,94,0.0,0.0,97,0.00,,,0.00,Wunderground v.1.15,2013-01-10 06:15:00,
2013-01-10 01:17:00,43.7,42.9,30.58,East,94,0.0,0.0,97,0.00,,,0.00,Wunderground v.1.15,2013-01-10 06:17:00,
2013-01-10 01:18:00,43.7,42.9,30.58,East,94,0.0,0.0,97,0.00,,,0.00,Wunderground v.1.15,2013-01-10 06:18:00,
2013-01-10 01:21:00,43.6,42.8,30.58,East,94,0.0,0.0,97,0.00,,,0.00,Wunderground v.1.15,2013-01-10 06:21:00,
2013-01-10 01:23:00,43.6,42.8,30.58,East,94,0.0,0.0,97,0.00,,,0.00,Wunderground v.1.15,2013-01-10 06:23:00,
2013-01-10 01:27:00,43.5,42.7,30.58,East,94,0.0,0.0,97,0.00,,,0.00,Wunderground v.1.15,2013-01-10 06:27:00,
2013-01-10 01:28:00,43.5,42.7,30.58,East,94,0.0,0.0,97,0.00,,,0.00,Wunderground v.1.15,2013-01-10 06:28:00,
2013-01-10 01:31:00,43.4,42.6,30.58,East,94,0.0,0.0,97,0.00,,,0.00,Wunderground v.1.15,2013-01-10 06:31:00,
2013-01-10 01:33:00,43.5,42.7,30.58,East,94,0.0,0.0,97,0.00,,,0.00,Wunderground v.1.15,2013-01-10 06:33:00,
2013-01-10 01:36:00,43.5,42.7,30.58,East,94,0.0,0.0,97,0.00,,,0.00,Wunderground v.1.15,2013-01-10 06:36:00,
2013-01-10 01:37:00,43.6,42.8,30.58,East,94,0.0,0.0,97,0.00,,,0.00,Wunderground v.1.15,2013-01-10 06:37:00,
2013-01-10 01:39:00,43.6,42.8,30.58,East,94,0.0,0.0,97,0.00,,,0.00,Wunderground v.1.15,2013-01-10 06:39:00,
2013-01-10 01:41:00,43.6,42.8,30.58,East,94,0.0,0.0,97,0.00,,,0.00,Wunderground v.1.15,2013-01-10 06:41:00,
2013-01-10 01:43:00,43.6,42.8,30.58,East,94,0.0,0.0,97,0.00,,,0.00,Wunderground v.1.15,2013-01-10 06:43:00,
2013-01-10 01:45:00,43.5,42.7,30.58,East,94,0.0,0.0,97,0.00,,,0.00,Wunderground v.1.15,2013-01-10 06:45:00,
2013-01-10 01:48:00,43.4,42.6,30.58,East,94,0.0,0.0,97,0.00,,,0.00,Wunderground v.1.15,2013-01-10 06:48:00,
2013-01-10 01:50:00,43.4,42.6,30.58,East,94,0.0,0.0,97,0.00,,,0.00,Wunderground v.1.15,2013-01-10 06:50:00,
2013-01-10 01:51:00,43.4,42.6,30.58,East,94,0.0,0.0,97,0.00,,,0.00,Wunderground v.1.15,2013-01-10 06:51:00,
2013-01-10 01:52:00,43.3,42.5,30.58,East,94,0.0,0.0,97,0.00,,,0.00,Wunderground v.1.15,2013-01-10 06:52:00,
2013-01-10 01:53:00,43.3,42.5,30.58,East,94,0.0,0.0,97,0.00,,,0.00,Wunderground v.1.15,2013-01-10 06:53:00,
2013-01-10 01:56:00,43.3,42.5,30.58,East,94,0.0,0.0,97,0.00,,,0.00,Wunderground v.1.15,2013-01-10 06:56:00,
2013-01-10 01:57:00,43.2,42.4,30.58,East,94,0.0,0.0,97,0.00,,,0.00,Wunderground v.1.15,2013-01-10 06:57:00,
2013-01-10 01:59:00,43.2,42.4,30.58,East,94,0.0,0.0,97,0.00,,,0.00,Wunderground v.1.15,2013-01-10 06:59:00,
2013-01-10 02:01:00,43.1,42.3,30.58,East,94,0.0,0.0,97,0.00,,,0.00,Wunderground v.1.15,2013-01-10 07:01:00,
2013-01-10 02:02:00,43.1,42.3,30.58,East,94,0.0,0.0,97,0.00,,,0.00,Wunderground v.1.15,2013-01-10 07:02:00,
2013-01-10 02:04:00,43.0,42.2,30.58,East,94,0.0,0.0,97,0.00,,,0.00,Wunderground v.1.15,2013-01-10 07:04:00,
2013-01-10 02:06:00,43.0,42.2,30.58,East,94,0.0,0.0,97,0.00,,,0.00,Wunderground v.1.15,2013-01-10 07:06:00,
2013-01-10 02:09:00,42.9,42.1,30.58,East,94,0.0,0.0,97,0.00,,,0.00,Wunderground v.1.15,2013-01-10 07:09:00,
2013-01-10 02:12:00,42.8,42.3,30.58,East,94,0.0,0.0,98,0.00,,,0.00,Wunderground v.1.15,2013-01-10 07:12:00,
2013-01-10 02:13:00,42.9,42.4,30.58,East,94,0.0,0.0,98,0.00,,,0.00,Wunderground v.1.15,2013-01-10 07:13:00,
2013-01-10 02:15:00,42.9,42.4,30.58,East,94,0.0,0.0,98,0.00,,,0.00,Wunderground v.1.15,2013-01-10 07:15:00,
2013-01-10 02:17:00,43.0,42.5,30.58,East,94,0.0,0.0,98,0.00,,,0.00,Wunderground v.1.15,2013-01-10 07:17:00,
2013-01-10 02:19:00,43.0,42.5,30.58,East,97,0.0,1.0,98,0.00,,,0.00,Wunderground v.1.15,2013-01-10 07:19:00,
2013-01-10 02:21:00,43.0,42.5,30.58,East,97,0.0,0.0,98,0.00,,,0.00,Wunderground v.1.15,2013-01-10 07:21:00,
2013-01-10 02:24:00,43.0,42.5,30.58,ESE,105,0.0,0.0,98,0.00,,,0.00,Wunderground v.1.15,2013-01-10 07:24:00,
2013-01-10 02:27:00,43.0,42.5,30.58,ESE,105,0.0,0.0,98,0.00,,,0.00,Wunderground v.1.15,2013-01-10 07:27:00,
2013-01-10 02:29:00,43.1,42.6,30.58,East,96,0.0,0.0,98,0.00,,,0.00,Wunderground v.1.15,2013-01-10 07:29:00,
2013-01-10 02:30:00,43.1,42.6,30.58,East,100,0.0,1.0,98,0.00,,,0.00,Wunderground v.1.15,2013-01-10 07:30:00,
2013-01-10 02:33:00,43.1,42.6,30.58,East,88,0.0,1.0,98,0.00,,,0.00,Wunderground v.1.15,2013-01-10 07:33:00,
2013-01-10 02:34:00,43.2,42.7,30.58,East,90,0.0,1.0,98,0.00,,,0.00,Wunderground v.1.15,2013-01-10 07:34:00,
2013-01-10 02:36:00,43.2,42.7,30.58,ENE,73,0.0,1.0,98,0.00,,,0.00,Wunderground v.1.15,2013-01-10 07:36:00,
2013-01-10 02:40:00,43.3,42.8,30.58,ENE,78,0.0,0.0,98,0.00,,,0.00,Wunderground v.1.15,2013-01-10 07:40:00,
2013-01-10 02:41:00,43.3,42.8,30.58,ENE,78,0.0,0.0,98,0.00,,,0.00,Wunderground v.1.15,2013-01-10 07:41:00,
2013-01-10 02:42:00,43.3,42.8,30.58,ENE,78,0.0,0.0,98,0.00,,,0.00,Wunderground v.1.15,2013-01-10 07:42:00,
2013-01-10 02:46:00,43.4,42.9,30.58,East,99,0.0,0.0,98,0.00,,,0.00,Wunderground v.1.15,2013-01-10 07:46:00,
2013-01-10 02:48:00,43.4,42.9,30.58,East,99,0.0,0.0,98,0.00,,,0.00,Wunderground v.1.15,2013-01-10 07:48:00,
2013-01-10 02:50:00,43.4,42.9,30.58,East,99,0.0,0.0,98,0.00,,,0.00,Wunderground v.1.15,2013-01-10 07:50:00,
2013-01-10 02:51:00,43.5,43.0,30.58,East,99,0.0,0.0,98,0.00,,,0.00,Wunderground v.1.15,2013-01-10 07:51:00,
2013-01-10 02:57:00,43.5,43.0,30.58,ENE,78,0.0,0.0,98,0.00,,,0.00,Wunderground v.1.15,2013-01-10 07:57:00,
2013-01-10 02:58:00,43.5,43.0,30.58,East,84,0.0,0.0,98,0.00,,,0.00,Wunderground v.1.15,2013-01-10 07:58:00,
2013-01-10 03:01:00,43.6,43.1,30.58,East,96,0.0,0.0,98,0.00,,,0.00,Wunderground v.1.15,2013-01-10 08:01:00,
2013-01-10 03:02:00,43.6,43.1,30.58,East,100,0.0,0.0,98,0.00,,,0.00,Wunderground v.1.15,2013-01-10 08:02:00,
2013-01-10 03:05:00,43.6,42.8,30.58,East,100,0.0,0.0,97,0.00,,,0.00,Wunderground v.1.15,2013-01-10 08:05:00,
2013-01-10 03:08:00,43.6,42.8,30.58,East,100,0.0,0.0,97,0.00,,,0.00,Wunderground v.1.15,2013-01-10 08:08:00,
2013-01-10 03:09:00,43.6,42.8,30.58,East,99,0.0,0.0,97,0.00,,,0.00,Wunderground v.1.15,2013-01-10 08:09:00,
2013-01-10 03:11:00,43.7,42.9,30.58,ENE,78,0.0,0.0,97,0.00,,,0.00,Wunderground v.1.15,2013-01-10 08:11:00,
2013-01-10 03:14:00,43.8,43.0,30.58,East,86,0.0,1.0,97,0.00,,,0.00,Wunderground v.1.15,2013-01-10 08:14:00,
2013-01-10 03:15:00,43.8,43.0,30.58,East,86,0.0,1.0,97,0.00,,,0.00,Wunderground v.1.15,2013-01-10 08:15:00,
2013-01-10 03:18:00,43.9,43.1,30.58,East,86,0.0,1.0,97,0.00,,,0.00,Wunderground v.1.15,2013-01-10 08:18:00,
2013-01-10 03:21:00,43.9,43.1,30.58,East,86,0.0,0.0,97,0.00,,,0.00,Wunderground v.1.15,2013-01-10 08:21:00,
2013-01-10 03:25:00,44.0,42.9,30.58,East,86,0.0,0.0,96,0.00,,,0.00,Wunderground v.1.15,2013-01-10 08:25:00,
2013-01-10 03:28:00,44.0,42.9,30.58,East,86,0.0,0.0,96,0.00,,,0.00,Wunderground v.1.15,2013-01-10 08:28:00,
2013-01-10 03:31:00,44.0,42.9,30.58,East,86,0.0,0.0,96,0.00,,,0.00,Wunderground v.1.15,2013-01-10 08:31:00,
2013-01-10 03:32:00,43.9,42.8,30.58,East,86,0.0,0.0,96,0.00,,,0.00,Wunderground v.1.15,2013-01-10 08:32:00,
2013-01-10 03:34:00,43.9,42.8,30.58,East,86,0.0,0.0,96,0.00,,,0.00,Wunderground v.1.15,2013-01-10 08:34:00,
2013-01-10 03:37:00,43.8,42.7,30.58,East,86,0.0,0.0,96,0.00,,,0.00,Wunderground v.1.15,2013-01-10 08:37:00,
2013-01-10 03:38:00,43.8,42.7,30.58,East,86,0.0,0.0,96,0.00,,,0.00,Wunderground v.1.15,2013-01-10 08:38:00,
2013-01-10 03:43:00,43.5,42.4,30.58,East,85,0.0,0.0,96,0.00,,,0.00,Wunderground v.1.15,2013-01-10 08:43:00,
2013-01-10 03:44:00,43.5,42.4,30.58,East,85,0.0,0.0,96,0.00,,,0.00,Wunderground v.1.15,2013-01-10 08:44:00,
2013-01-10 03:47:00,43.4,42.3,30.58,East,85,0.0,0.0,96,0.00,,,0.00,Wunderground v.1.15,2013-01-10 08:47:00,
2013-01-10 03:48:00,43.4,42.3,30.58,East,85,0.0,0.0,96,0.00,,,0.00,Wunderground v.1.15,2013-01-10 08:48:00,
2013-01-10 03:52:00,43.3,42.2,30.58,East,90,0.0,1.0,96,0.00,,,0.00,Wunderground v.1.15,2013-01-10 08:52:00,
2013-01-10 03:54:00,43.3,42.2,30.58,East,88,0.0,1.0,96,0.00,,,0.00,Wunderground v.1.15,2013-01-10 08:54:00,
2013-01-10 03:55:00,43.3,42.2,30.58,ESE,103,0.0,1.0,96,0.00,,,0.00,Wunderground v.1.15,2013-01-10 08:55:00,
2013-01-10 03:58:00,43.2,42.1,30.58,ESE,103,0.0,1.0,96,0.00,,,0.00,Wunderground v.1.15,2013-01-10 08:58:00,
2013-01-10 04:00:00,43.2,42.1,30.58,ESE,102,0.0,0.0,96,0.00,,,0.00,Wunderground v.1.15,2013-01-10 09:00:00,
2013-01-10 04:01:00,43.1,42.0,30.58,ESE,102,0.0,0.0,96,0.00,,,0.00,Wunderground v.1.15,2013-01-10 09:01:00,
2013-01-10 04:03:00,43.1,42.0,30.58,ESE,102,0.0,0.0,96,0.00,,,0.00,Wunderground v.1.15,2013-01-10 09:03:00,
2013-01-10 04:04:00,43.1,42.0,30.58,ESE,102,0.0,0.0,96,0.00,,,0.00,Wunderground v.1.15,2013-01-10 09:04:00,
2013-01-10 04:06:00,43.0,41.9,30.58,ESE,102,0.0,0.0,96,0.00,,,0.00,Wunderground v.1.15,2013-01-10 09:06:00,
2013-01-10 04:08:00,42.9,41.8,30.58,ESE,102,0.0,1.0,96,0.00,,,0.00,Wunderground v.1.15,2013-01-10 09:08:00,
2013-01-10 04:09:00,42.9,41.8,30.58,ESE,102,0.0,1.0,96,0.00,,,0.00,Wunderground v.1.15,2013-01-10 09:09:00,
2013-01-10 04:11:00,42.8,41.7,30.58,East,101,0.0,0.0,96,0.00,,,0.00,Wunderground v.1.15,2013-01-10 09:11:00,
2013-01-10 04:12:00,42.8,41.7,30.58,East,101,0.0,0.0,96,0.00,,,0.00,Wunderground v.1.15,2013-01-10 09:12:00,
2013-01-10 04:15:00,42.7,41.6,30.58,East,101,0.0,0.0,96,0.00,,,0.00,Wunderground v.1.15,2013-01-10 09:15:00,
2013-01-10 04:17:00,42.7,41.6,30.57,East,101,0.0,0.0,96,0.00,,,0.00,Wunderground v.1.15,2013-01-10 09:17:00,
2013-01-10 04:18:00,42.7,41.6,30.58,East,101,0.0,0.0,96,0.00,,,0.00,Wunderground v.1.15,2013-01-10 09:18:00,
2013-01-10 04:20:00,42.6,41.5,30.57,East,101,0.0,0.0,96,0.00,,,0.00,Wunderground v.1.15,2013-01-10 09:20:00,
2013-01-10 04:21:00,42.6,41.5,30.57,East,101,0.0,0.0,96,0.00,,,0.00,Wunderground v.1.15,2013-01-10 09:21:00,
2013-01-10 04:22:00,42.6,41.5,30.57,East,101,0.0,0.0,96,0.00,,,0.00,Wunderground v.1.15,2013-01-10 09:22:00,
2013-01-10 04:24:00,42.5,41.4,30.57,East,101,0.0,0.0,96,0.00,,,0.00,Wunderground v.1.15,2013-01-10 09:24:00,
2013-01-10 04:25:00,42.5,41.2,30.57,East,101,0.0,0.0,95,0.00,,,0.00,Wunderground v.1.15,2013-01-10 09:25:00,
2013-01-10 04:26:00,42.5,41.2,30.57,East,101,0.0,0.0,95,0.00,,,0.00,Wunderground v.1.15,2013-01-10 09:26:00,
2013-01-10 04:29:00,42.4,41.1,30.57,ESE,103,0.0,0.0,95,0.00,,,0.00,Wunderground v.1.15,2013-01-10 09:29:00,
2013-01-10 04:30:00,42.4,41.1,30.57,East,101,0.0,0.0,95,0.00,,,0.00,Wunderground v.1.15,2013-01-10 09:30:00,
2013-01-10 04:32:00,42.4,41.1,30.57,East,101,0.0,0.0,95,0.00,,,0.00,Wunderground v.1.15,2013-01-10 09:32:00,
2013-01-10 04:34:00,42.4,41.1,30.57,East,101,0.0,0.0,95,0.00,,,0.00,Wunderground v.1.15,2013-01-10 09:34:00,
2013-01-10 04:35:00,42.4,41.1,30.57,East,101,0.0,0.0,95,0.00,,,0.00,Wunderground v.1.15,2013-01-10 09:35:00,
2013-01-10 04:37:00,42.3,40.7,30.57,East,101,0.0,0.0,94,0.00,,,0.00,Wunderground v.1.15,2013-01-10 09:37:00,
2013-01-10 04:42:00,42.2,40.6,30.56,ESE,103,0.0,0.0,94,0.00,,,0.00,Wunderground v.1.15,2013-01-10 09:42:00,
2013-01-10 04:43:00,42.2,40.6,30.56,East,101,0.0,1.0,94,0.00,,,0.00,Wunderground v.1.15,2013-01-10 09:43:00,
2013-01-10 04:46:00,42.1,40.5,30.56,East,96,0.0,1.0,94,0.00,,,0.00,Wunderground v.1.15,2013-01-10 09:46:00,
2013-01-10 04:47:00,42.1,40.5,30.56,ESE,121,0.0,1.0,94,0.00,,,0.00,Wunderground v.1.15,2013-01-10 09:47:00,
2013-01-10 04:51:00,42.0,40.1,30.56,ESE,108,0.0,2.0,93,0.00,,,0.00,Wunderground v.1.15,2013-01-10 09:51:00,
2013-01-10 04:53:00,42.0,40.1,30.56,ESE,104,0.0,2.0,93,0.00,,,0.00,Wunderground v.1.15,2013-01-10 09:53:00,
2013-01-10 04:54:00,42.0,40.1,30.56,ENE,75,0.0,2.0,93,0.00,,,0.00,Wunderground v.1.15,2013-01-10 09:54:00,
2013-01-10 04:56:00,42.0,40.1,30.56,East,86,0.0,2.0,93,0.00,,,0.00,Wunderground v.1.15,2013-01-10 09:56:00,
2013-01-10 04:59:00,42.0,40.1,30.56,East,96,0.0,2.0,93,0.00,,,0.00,Wunderground v.1.15,2013-01-10 09:59:00,
2013-01-10 05:01:00,42.1,40.2,30.56,ESE,112,0.0,1.0,93,0.00,,,0.00,Wunderground v.1.15,2013-01-10 10:01:00,
2013-01-10 05:04:00,42.1,40.2,30.55,East,91,0.0,3.0,93,0.00,,,0.00,Wunderground v.1.15,2013-01-10 10:04:00,
2013-01-10 05:05:00,42.1,40.2,30.55,East,91,0.0,3.0,93,0.00,,,0.00,Wunderground v.1.15,2013-01-10 10:05:00,
2013-01-10 05:06:00,42.1,40.2,30.55,East,91,0.0,3.0,93,0.00,,,0.00,Wunderground v.1.15,2013-01-10 10:06:00,
2013-01-10 05:07:00,42.1,40.2,30.55,ENE,76,0.0,3.0,93,0.00,,,0.00,Wunderground v.1.15,2013-01-10 10:07:00,
2013-01-10 05:12:00,42.0,40.1,30.55,ESE,102,0.0,1.0,93,0.00,,,0.00,Wunderground v.1.15,2013-01-10 10:12:00,
2013-01-10 05:13:00,42.1,40.2,30.55,ESE,103,0.0,1.0,93,0.00,,,0.00,Wunderground v.1.15,2013-01-10 10:13:00,
2013-01-10 05:15:00,42.1,40.2,30.55,ESE,103,0.0,1.0,93,0.00,,,0.00,Wunderground v.1.15,2013-01-10 10:15:00,
2013-01-10 05:16:00,42.1,40.2,30.55,East,82,0.0,1.0,93,0.00,,,0.00,Wunderground v.1.15,2013-01-10 10:16:00,
2013-01-10 05:18:00,42.1,39.9,30.55,East,93,0.0,1.0,92,0.00,,,0.00,Wunderground v.1.15,2013-01-10 10:18:00,
2013-01-10 05:19:00,42.1,39.9,30.55,ENE,71,0.0,1.0,92,0.00,,,0.00,Wunderground v.1.15,2013-01-10 10:19:00,
2013-01-10 05:21:00,42.2,40.0,30.55,ESE,102,0.0,0.0,92,0.00,,,0.00,Wunderground v.1.15,2013-01-10 10:21:00,
2013-01-10 05:24:00,42.2,40.0,30.55,ESE,102,0.0,0.0,92,0.00,,,0.00,Wunderground v.1.15,2013-01-10 10:24:00,
2013-01-10 05:25:00,42.2,40.0,30.55,ESE,105,0.0,0.0,92,0.00,,,0.00,Wunderground v.1.15,2013-01-10 10:25:00,
2013-01-10 05:27:00,42.2,40.0,30.55,ESE,103,0.0,2.0,92,0.00,,,0.00,Wunderground v.1.15,2013-01-10 10:27:00,
2013-01-10 05:30:00,42.3,40.1,30.55,ESE,108,0.0,0.0,92,0.00,,,0.00,Wunderground v.1.15,2013-01-10 10:30:00,
2013-01-10 05:31:00,42.3,40.1,30.55,East,101,0.0,0.0,92,0.00,,,0.00,Wunderground v.1.15,2013-01-10 10:31:00,
2013-01-10 05:32:00,42.3,40.1,30.55,East,80,0.0,0.0,92,0.00,,,0.00,Wunderground v.1.15,2013-01-10 10:32:00,
2013-01-10 05:33:00,42.3,40.1,30.55,East,82,0.0,0.0,92,0.00,,,0.00,Wunderground v.1.15,2013-01-10 10:33:00,
2013-01-10 05:37:00,42.3,39.9,30.54,East,98,0.0,0.0,91,0.00,,,0.00,Wunderground v.1.15,2013-01-10 10:37:00,
2013-01-10 05:38:00,42.3,39.9,30.54,ESE,104,0.0,0.0,91,0.00,,,0.00,Wunderground v.1.15,2013-01-10 10:38:00,
2013-01-10 05:39:00,42.3,39.9,30.54,ESE,111,0.0,1.0,91,0.00,,,0.00,Wunderground v.1.15,2013-01-10 10:39:00,
2013-01-10 05:42:00,42.4,40.0,30.54,ESE,105,0.0,1.0,91,0.00,,,0.00,Wunderground v.1.15,2013-01-10 10:42:00,
2013-01-10 05:45:00,42.3,39.9,30.55,ESE,109,0.0,1.0,91,0.00,,,0.00,Wunderground v.1.15,2013-01-10 10:45:00,
2013-01-10 05:48:00,42.3,39.9,30.55,East,97,0.0,2.0,91,0.00,,,0.00,Wunderground v.1.15,2013-01-10 10:48:00,
2013-01-10 05:49:00,42.3,39.9,30.55,East,101,0.0,2.0,91,0.00,,,0.00,Wunderground v.1.15,2013-01-10 10:49:00,
2013-01-10 05:51:00,42.3,39.9,30.55,ESE,105,0.0,0.0,91,0.00,,,0.00,Wunderground v.1.15,2013-01-10 10:51:00,
2013-01-10 05:52:00,42.3,39.9,30.55,ESE,116,0.0,0.0,91,0.00,,,0.00,Wunderground v.1.15,2013-01-10 10:52:00,
2013-01-10 05:56:00,42.3,39.9,30.55,ESE,106,0.0,1.0,91,0.00,,,0.00,Wunderground v.1.15,2013-01-10 10:56:00,
2013-01-10 05:58:00,42.3,39.9,30.55,East,101,0.0,1.0,91,0.00,,,0.00,Wunderground v.1.15,2013-01-10 10:58:00,
2013-01-10 05:59:00,42.3,39.9,30.55,East,101,0.0,1.0,91,0.00,,,0.00,Wunderground v.1.15,2013-01-10 10:59:00,
2013-01-10 06:00:00,42.3,39.9,30.55,East,101,0.0,1.0,91,0.00,,,0.00,Wunderground v.1.15,2013-01-10 11:00:00,
2013-01-10 06:04:00,42.3,39.9,30.55,ESE,106,0.0,1.0,91,0.00,,,0.00,Wunderground v.1.15,2013-01-10 11:04:00,
2013-01-10 06:05:00,42.2,39.8,30.55,East,100,0.0,1.0,91,0.00,,,0.00,Wunderground v.1.15,2013-01-10 11:05:00,
2013-01-10 06:06:00,42.2,39.8,30.55,East,100,0.0,1.0,91,0.00,,,0.00,Wunderground v.1.15,2013-01-10 11:06:00,
2013-01-10 06:08:00,42.2,39.8,30.55,East,101,0.0,1.0,91,0.00,,,0.00,Wunderground v.1.15,2013-01-10 11:08:00,
2013-01-10 06:10:00,42.2,39.8,30.55,East,101,0.0,0.0,91,0.00,,,0.00,Wunderground v.1.15,2013-01-10 11:10:00,
2013-01-10 06:12:00,42.1,39.7,30.56,East,100,0.0,0.0,91,0.00,,,0.00,Wunderground v.1.15,2013-01-10 11:12:00,
2013-01-10 06:15:00,42.0,39.6,30.56,ESE,107,0.0,0.0,91,0.00,,,0.00,Wunderground v.1.15,2013-01-10 11:15:00,
2013-01-10 06:16:00,42.0,39.6,30.56,SE,126,0.0,0.0,91,0.00,,,0.00,Wunderground v.1.15,2013-01-10 11:16:00,
2013-01-10 06:19:00,41.9,39.5,30.56,ESE,113,0.0,0.0,91,0.00,,,0.00,Wunderground v.1.15,2013-01-10 11:19:00,
2013-01-10 06:20:00,41.8,39.4,30.56,ESE,113,0.0,0.0,91,0.00,,,0.00,Wunderground v.1.15,2013-01-10 11:20:00,
2013-01-10 06:24:00,41.6,39.4,30.56,ESE,113,0.0,0.0,92,0.00,,,0.00,Wunderground v.1.15,2013-01-10 11:24:00,
2013-01-10 06:25:00,41.5,39.3,30.56,ESE,113,0.0,0.0,92,0.00,,,0.00,Wunderground v.1.15,2013-01-10 11:25:00,
2013-01-10 06:26:00,41.5,39.3,30.56,ESE,113,0.0,0.0,92,0.00,,,0.00,Wunderground v.1.15,2013-01-10 11:26:00,
2013-01-10 06:29:00,41.4,39.3,30.57,ESE,113,0.0,2.0,92,0.00,,,0.00,Wunderground v.1.15,2013-01-10 11:29:00,
2013-01-10 06:30:00,41.4,39.3,30.57,ESE,113,0.0,0.0,92,0.00,,,0.00,Wunderground v.1.15,2013-01-10 11:30:00,
2013-01-10 06:34:00,41.3,39.2,30.56,ESE,111,0.0,0.0,92,0.00,,,0.00,Wunderground v.1.15,2013-01-10 11:34:00,
2013-01-10 06:35:00,41.3,39.2,30.56,ESE,111,0.0,0.0,92,0.00,,,0.00,Wunderground v.1.15,2013-01-10 11:35:00,
2013-01-10 06:36:00,41.3,39.2,30.56,ESE,111,0.0,0.0,92,0.00,,,0.00,Wunderground v.1.15,2013-01-10 11:36:00,
2013-01-10 06:40:00,41.3,39.2,30.56,ESE,111,0.0,0.0,92,0.00,,,0.00,Wunderground v.1.15,2013-01-10 11:40:00,
2013-01-10 06:41:00,41.3,39.2,30.56,ESE,111,0.0,0.0,92,0.00,,,0.00,Wunderground v.1.15,2013-01-10 11:41:00,
2013-01-10 06:42:00,41.3,39.2,30.56,ESE,111,0.0,0.0,92,0.00,,,0.00,Wunderground v.1.15,2013-01-10 11:42:00,
2013-01-10 06:43:00,41.3,39.2,30.56,ESE,111,0.0,0.0,92,0.00,,,0.00,Wunderground v.1.15,2013-01-10 11:43:00,
2013-01-10 06:46:00,41.2,39.1,30.56,ESE,111,0.0,0.0,92,0.00,,,0.00,Wunderground v.1.15,2013-01-10 11:46:00,
2013-01-10 06:49:00,41.1,39.0,30.57,ESE,111,0.0,0.0,92,0.00,,,0.00,Wunderground v.1.15,2013-01-10 11:49:00,
2013-01-10 06:52:00,41.1,39.0,30.57,ESE,111,0.0,0.0,92,0.00,,,0.00,Wunderground v.1.15,2013-01-10 11:52:00,
2013-01-10 06:54:00,41.1,39.0,30.57,ESE,111,0.0,0.0,92,0.00,,,0.00,Wunderground v.1.15,2013-01-10 11:54:00,
2013-01-10 06:55:00,41.0,38.9,30.57,ESE,111,0.0,0.0,92,0.00,,,0.00,Wunderground v.1.15,2013-01-10 11:55:00,
2013-01-10 06:56:00,41.1,39.0,30.57,ESE,111,0.0,0.0,92,0.00,,,0.00,Wunderground v.1.15,2013-01-10 11:56:00,
2013-01-10 07:00:00,41.0,38.9,30.56,ESE,110,0.0,0.0,92,0.00,,,0.00,Wunderground v.1.15,2013-01-10 12:00:00,
2013-01-10 07:01:00,41.0,38.9,30.56,SE,128,0.0,0.0,92,0.00,,,0.00,Wunderground v.1.15,2013-01-10 12:01:00,
2013-01-10 07:02:00,41.0,38.9,30.56,ESE,111,0.0,0.0,92,0.00,,,0.00,Wunderground v.1.15,2013-01-10 12:02:00,
2013-01-10 07:07:00,40.9,38.8,30.56,SE,126,0.0,0.0,92,0.00,,,0.00,Wunderground v.1.15,2013-01-10 12:07:00,
2013-01-10 07:08:00,40.8,38.7,30.56,ESE,115,0.0,0.0,92,0.00,,,0.00,Wunderground v.1.15,2013-01-10 12:08:00,
2013-01-10 07:11:00,40.7,38.6,30.56,ESE,116,0.0,0.0,92,0.00,,,0.00,Wunderground v.1.15,2013-01-10 12:11:00,
2013-01-10 07:14:00,40.5,38.4,30.56,ESE,115,0.0,0.0,92,0.00,,,0.00,Wunderground v.1.15,2013-01-10 12:14:00,
2013-01-10 07:16:00,40.4,38.5,30.56,ESE,107,0.0,0.0,93,0.00,,,0.00,Wunderground v.1.15,2013-01-10 12:16:00,
2013-01-10 07:19:00,40.4,38.5,30.56,ESE,103,0.0,1.0,93,0.00,,,0.00,Wunderground v.1.15,2013-01-10 12:19:00,
2013-01-10 07:21:00,40.4,38.5,30.56,East,95,0.0,0.0,93,0.00,,,0.00,Wunderground v.1.15,2013-01-10 12:21:00,
2013-01-10 07:23:00,40.4,38.5,30.56,East,98,0.0,1.0,93,0.00,,,0.00,Wunderground v.1.15,2013-01-10 12:23:00,
2013-01-10 07:26:00,40.3,38.4,30.56,ESE,105,0.0,2.0,93,0.00,,,0.00,Wunderground v.1.15,2013-01-10 12:26:00,
2013-01-10 07:27:00,40.3,38.4,30.56,ESE,106,0.0,3.0,93,0.00,,,0.00,Wunderground v.1.15,2013-01-10 12:27:00,
2013-01-10 07:29:00,40.2,38.3,30.56,ESE,105,1.0,3.0,93,0.00,,,0.00,Wunderground v.1.15,2013-01-10 12:29:00,
2013-01-10 07:31:00,40.2,38.3,30.56,East,84,1.0,1.0,93,0.00,,,0.00,Wunderground v.1.15,2013-01-10 12:31:00,
2013-01-10 07:32:00,40.2,38.3,30.56,East,97,1.0,1.0,93,0.00,,,0.00,Wunderground v.1.15,2013-01-10 12:32:00,
2013-01-10 07:34:00,40.2,38.3,30.56,ESE,102,1.0,1.0,93,0.00,,,0.00,Wunderground v.1.15,2013-01-10 12:34:00,
2013-01-10 07:38:00,40.2,38.3,30.55,East,87,1.0,2.0,93,0.00,,,0.00,Wunderground v.1.15,2013-01-10 12:38:00,
2013-01-10 07:39:00,40.2,38.3,30.55,East,97,1.0,2.0,93,0.00,,,0.00,Wunderground v.1.15,2013-01-10 12:39:00,
2013-01-10 07:41:00,40.1,38.2,30.55,East,95,1.0,1.0,93,0.00,,,0.00,Wunderground v.1.15,2013-01-10 12:41:00,
2013-01-10 07:44:00,40.1,38.2,30.55,ESE,109,1.0,3.0,93,0.00,,,0.00,Wunderground v.1.15,2013-01-10 12:44:00,
2013-01-10 07:45:00,40.2,38.3,30.55,East,82,1.0,3.0,93,0.00,,,0.00,Wunderground v.1.15,2013-01-10 12:45:00,
2013-01-10 07:47:00,40.2,38.3,30.54,ESE,110,1.0,3.0,93,0.00,,,0.00,Wunderground v.1.15,2013-01-10 12:47:00,
2013-01-10 07:51:00,40.4,38.5,30.54,East,96,2.0,3.0,93,0.00,,,0.00,Wunderground v.1.15,2013-01-10 12:51:00,
2013-01-10 07:52:00,40.4,38.5,30.54,East,89,2.0,3.0,93,0.00,,,0.00,Wunderground v.1.15,2013-01-10 12:52:00,
2013-01-10 07:56:00,40.6,38.7,30.54,ESE,108,2.0,4.0,93,0.00,,,0.00,Wunderground v.1.15,2013-01-10 12:56:00,
2013-01-10 07:57:00,40.7,38.8,30.54,East,92,2.0,4.0,93,0.00,,,0.00,Wunderground v.1.15,2013-01-10 12:57:00,
2013-01-10 07:59:00,40.8,38.7,30.54,ESE,111,2.0,4.0,92,0.00,,,0.00,Wunderground v.1.15,2013-01-10 12:59:00,
2013-01-10 08:01:00,41.0,38.9,30.54,East,89,2.0,2.0,92,0.00,,,0.00,Wunderground v.1.15,2013-01-10 13:01:00,
2013-01-10 08:03:00,41.1,39.0,30.53,East,91,2.0,4.0,92,0.00,,,0.00,Wunderground v.1.15,2013-01-10 13:03:00,
2013-01-10 08:06:00,41.3,38.9,30.53,East,96,2.0,4.0,91,0.00,,,0.00,Wunderground v.1.15,2013-01-10 13:06:00,
2013-01-10 08:07:00,41.3,38.9,30.53,ESE,117,2.0,4.0,91,0.00,,,0.00,Wunderground v.1.15,2013-01-10 13:07:00,
2013-01-10 08:08:00,41.4,39.0,30.53,ESE,108,2.0,7.0,91,0.00,,,0.00,Wunderground v.1.15,2013-01-10 13:08:00,
2013-01-10 08:12:00,41.6,38.9,30.54,East,99,2.0,3.0,90,0.00,,,0.00,Wunderground v.1.15,2013-01-10 13:12:00,
2013-01-10 08:15:00,41.7,38.7,30.54,ESE,106,2.0,7.0,89,0.00,,,0.00,Wunderground v.1.15,2013-01-10 13:15:00,
2013-01-10 08:17:00,41.7,38.7,30.54,ESE,113,2.0,7.0,89,0.00,,,0.00,Wunderground v.1.15,2013-01-10 13:17:00,
2013-01-10 08:18:00,41.7,38.7,30.54,ESE,103,2.0,7.0,89,0.00,,,0.00,Wunderground v.1.15,2013-01-10 13:18:00,
2013-01-10 08:20:00,41.7,38.7,30.54,ESE,111,2.0,2.0,89,0.00,,,0.00,Wunderground v.1.15,2013-01-10 13:20:00,
2013-01-10 08:23:00,41.7,38.7,30.54,ESE,110,1.0,3.0,89,0.00,,,0.00,Wunderground v.1.15,2013-01-10 13:23:00,
2013-01-10 08:24:00,41.8,38.8,30.54,ESE,102,1.0,3.0,89,0.00,,,0.00,Wunderground v.1.15,2013-01-10 13:24:00,
2013-01-10 08:29:00,41.8,38.8,30.55,East,100,1.0,3.0,89,0.00,,,0.00,Wunderground v.1.15,2013-01-10 13:29:00,
2013-01-10 08:31:00,41.8,38.8,30.55,East,101,1.0,1.0,89,0.00,,,0.00,Wunderground v.1.15,2013-01-10 13:31:00,
2013-01-10 08:33:00,41.8,38.8,30.55,ESE,102,1.0,2.0,89,0.00,,,0.00,Wunderground v.1.15,2013-01-10 13:33:00,
2013-01-10 08:34:00,41.8,38.8,30.55,East,101,1.0,2.0,89,0.00,,,0.00,Wunderground v.1.15,2013-01-10 13:34:00,
2013-01-10 08:37:00,41.9,38.6,30.56,ESE,103,1.0,2.0,88,0.00,,,0.00,Wunderground v.1.15,2013-01-10 13:37:00,
2013-01-10 08:40:00,42.0,38.7,30.56,ESE,107,1.0,1.0,88,0.00,,,0.00,Wunderground v.1.15,2013-01-10 13:40:00,
2013-01-10 08:42:00,42.0,38.7,30.56,ESE,103,1.0,1.0,88,0.00,,,0.00,Wunderground v.1.15,2013-01-10 13:42:00,
2013-01-10 08:43:00,42.0,38.7,30.56,ESE,103,1.0,1.0,88,0.00,,,0.00,Wunderground v.1.15,2013-01-10 13:43:00,
2013-01-10 08:45:00,42.0,38.7,30.56,ESE,102,1.0,2.0,88,0.00,,,0.00,Wunderground v.1.15,2013-01-10 13:45:00,
2013-01-10 08:49:00,42.1,38.5,30.55,ESE,107,1.0,4.0,87,0.00,,,0.00,Wunderground v.1.15,2013-01-10 13:49:00,
2013-01-10 08:50:00,42.1,38.5,30.55,ESE,110,1.0,1.0,87,0.00,,,0.00,Wunderground v.1.15,2013-01-10 13:50:00,
2013-01-10 08:52:00,42.1,38.2,30.55,East,101,1.0,2.0,86,0.00,,,0.00,Wunderground v.1.15,2013-01-10 13:52:00,
2013-01-10 08:55:00,42.2,38.3,30.55,ESE,111,1.0,2.0,86,0.00,,,0.00,Wunderground v.1.15,2013-01-10 13:55:00,
2013-01-10 08:56:00,42.2,38.6,30.55,ESE,105,1.0,2.0,87,0.00,,,0.00,Wunderground v.1.15,2013-01-10 13:56:00,
2013-01-10 08:57:00,42.2,38.3,30.55,ESE,108,1.0,2.0,86,0.00,,,0.00,Wunderground v.1.15,2013-01-10 13:57:00,
2013-01-10 09:01:00,42.2,38.3,30.55,ESE,106,1.0,1.0,86,0.00,,,0.00,Wunderground v.1.15,2013-01-10 14:01:00,
2013-01-10 09:04:00,42.2,38.3,30.56,ESE,111,1.0,1.0,86,0.00,,,0.00,Wunderground v.1.15,2013-01-10 14:04:00,
2013-01-10 09:05:00,42.2,38.3,30.56,ESE,117,1.0,1.0,86,0.00,,,0.00,Wunderground v.1.15,2013-01-10 14:05:00,
2013-01-10 09:07:00,42.2,38.0,30.56,ESE,120,1.0,1.0,85,0.00,,,0.00,Wunderground v.1.15,2013-01-10 14:07:00,
2013-01-10 09:09:00,42.2,38.0,30.56,ESE,108,1.0,2.0,85,0.00,,,0.00,Wunderground v.1.15,2013-01-10 14:09:00,
2013-01-10 09:12:00,42.3,38.1,30.56,ESE,105,0.0,1.0,85,0.00,,,0.00,Wunderground v.1.15,2013-01-10 14:12:00,
2013-01-10 09:13:00,42.2,38.3,30.56,ESE,103,0.0,2.0,86,0.00,,,0.00,Wunderground v.1.15,2013-01-10 14:13:00,
2013-01-10 09:14:00,42.3,38.1,30.56,ESE,109,0.0,2.0,85,0.00,,,0.00,Wunderground v.1.15,2013-01-10 14:14:00,
2013-01-10 09:15:00,42.3,38.1,30.56,ESE,123,0.0,2.0,85,0.00,,,0.00,Wunderground v.1.15,2013-01-10 14:15:00,
2013-01-10 09:18:00,42.2,38.3,30.55,ESE,104,0.0,2.0,86,0.00,,,0.00,Wunderground v.1.15,2013-01-10 14:18:00,
2013-01-10 09:19:00,42.2,38.3,30.55,ESE,102,0.0,2.0,86,0.00,,,0.00,Wunderground v.1.15,2013-01-10 14:19:00,
2013-01-10 09:20:00,42.2,38.3,30.55,ESE,104,0.0,0.0,86,0.00,,,0.00,Wunderground v.1.15,2013-01-10 14:20:00,
2013-01-10 09:21:00,42.2,38.3,30.55,ESE,106,0.0,0.0,86,0.00,,,0.00,Wunderground v.1.15,2013-01-10 14:21:00,
2013-01-10 09:25:00,42.0,38.1,30.55,ESE,105,0.0,1.0,86,0.00,,,0.00,Wunderground v.1.15,2013-01-10 14:25:00,
2013-01-10 09:26:00,42.0,38.1,30.56,ESE,108,0.0,1.0,86,0.00,,,0.00,Wunderground v.1.15,2013-01-10 14:26:00,
2013-01-10 09:27:00,42.0,38.1,30.56,SE,136,0.0,1.0,86,0.00,,,0.00,Wunderground v.1.15,2013-01-10 14:27:00,
2013-01-10 09:29:00,41.9,38.0,30.56,ESE,112,0.0,1.0,86,0.00,,,0.00,Wunderground v.1.15,2013-01-10 14:29:00,
2013-01-10 09:31:00,41.9,38.0,30.55,ESE,106,0.0,0.0,86,0.00,,,0.00,Wunderground v.1.15,2013-01-10 14:31:00,
2013-01-10 09:33:00,41.9,38.3,30.55,East,101,0.0,0.0,87,0.00,,,0.00,Wunderground v.1.15,2013-01-10 14:33:00,
2013-01-10 09:34:00,41.9,38.3,30.55,East,97,0.0,0.0,87,0.00,,,0.00,Wunderground v.1.15,2013-01-10 14:34:00,
2013-01-10 09:36:00,41.9,38.3,30.55,ESE,105,0.0,1.0,87,0.00,,,0.00,Wunderground v.1.15,2013-01-10 14:36:00,
2013-01-10 09:38:00,41.9,38.3,30.55,ESE,102,0.0,1.0,87,0.00,,,0.00,Wunderground v.1.15,2013-01-10 14:38:00,
2013-01-10 09:40:00,41.9,38.3,30.54,ESE,108,0.0,0.0,87,0.00,,,0.00,Wunderground v.1.15,2013-01-10 14:40:00,
2013-01-10 09:41:00,41.8,38.2,30.54,ESE,105,0.0,0.0,87,0.00,,,0.00,Wunderground v.1.15,2013-01-10 14:41:00,
2013-01-10 09:42:00,41.9,38.3,30.55,East,99,0.0,0.0,87,0.00,,,0.00,Wunderground v.1.15,2013-01-10 14:42:00,
2013-01-10 09:46:00,41.8,38.2,30.55,ESE,115,0.0,2.0,87,0.00,,,0.00,Wunderground v.1.15,2013-01-10 14:46:00,
2013-01-10 09:47:00,41.9,38.3,30.55,ESE,113,0.0,2.0,87,0.00,,,0.00,Wunderground v.1.15,2013-01-10 14:47:00,
2013-01-10 09:48:00,41.9,38.3,30.55,ESE,104,0.0,2.0,87,0.00,,,0.00,Wunderground v.1.15,2013-01-10 14:48:00,
2013-01-10 09:50:00,41.9,38.6,30.55,ESE,112,0.0,0.0,88,0.00,,,0.00,Wunderground v.1.15,2013-01-10 14:50:00,
2013-01-10 09:53:00,41.9,38.6,30.55,ESE,111,0.0,0.0,88,0.00,,,0.00,Wunderground v.1.15,2013-01-10 14:53:00,
2013-01-10 09:54:00,41.8,38.5,30.55,ESE,111,0.0,0.0,88,0.00,,,0.00,Wunderground v.1.15,2013-01-10 14:54:00,
2013-01-10 09:56:00,41.8,38.2,30.55,SE,125,0.0,1.0,87,0.00,,,0.00,Wunderground v.1.15,2013-01-10 14:56:00,
2013-01-10 09:58:00,41.8,38.5,30.55,SE,131,0.0,1.0,88,0.00,,,0.00,Wunderground v.1.15,2013-01-10 14:58:00,
2013-01-10 10:00:00,41.9,38.3,30.55,SE,133,0.0,0.0,87,0.00,,,0.00,Wunderground v.1.15,2013-01-10 15:00:00,
2013-01-10 10:01:00,41.9,38.6,30.55,SE,133,0.0,0.0,88,0.00,,,0.00,Wunderground v.1.15,2013-01-10 15:01:00,
2013-01-10 10:04:00,41.9,38.6,30.55,East,93,0.0,0.0,88,0.00,,,0.00,Wunderground v.1.15,2013-01-10 15:04:00,
2013-01-10 10:07:00,42.0,38.7,30.55,ESE,103,0.0,0.0,88,0.00,,,0.00,Wunderground v.1.15,2013-01-10 15:07:00,
2013-01-10 10:08:00,42.0,38.7,30.55,ESE,103,0.0,0.0,88,0.00,,,0.00,Wunderground v.1.15,2013-01-10 15:08:00,
2013-01-10 10:10:00,42.0,38.7,30.54,ESE,103,0.0,0.0,88,0.00,,,0.00,Wunderground v.1.15,2013-01-10 15:10:00,
2013-01-10 10:15:00,42.1,38.8,30.55,ESE,103,0.0,0.0,88,0.00,,,0.00,Wunderground v.1.15,2013-01-10 15:15:00,
2013-01-10 10:16:00,42.1,38.8,30.55,ESE,103,0.0,0.0,88,0.00,,,0.00,Wunderground v.1.15,2013-01-10 15:16:00,
2013-01-10 10:19:00,42.1,38.8,30.55,SSE,150,0.0,1.0,88,0.00,,,0.00,Wunderground v.1.15,2013-01-10 15:19:00,
2013-01-10 10:21:00,42.2,39.2,30.55,SSE,150,0.0,0.0,89,0.00,,,0.00,Wunderground v.1.15,2013-01-10 15:21:00,
2013-01-10 10:22:00,42.2,39.2,30.55,SSE,150,0.0,0.0,89,0.00,,,0.00,Wunderground v.1.15,2013-01-10 15:22:00,
2013-01-10 10:25:00,42.3,39.3,30.55,SSE,150,0.0,0.0,89,0.00,,,0.00,Wunderground v.1.15,2013-01-10 15:25:00,
2013-01-10 10:26:00,42.3,39.3,30.55,ESE,116,0.0,0.0,89,0.00,,,0.00,Wunderground v.1.15,2013-01-10 15:26:00,
2013-01-10 10:27:00,42.3,39.3,30.55,East,92,0.0,0.0,89,0.00,,,0.00,Wunderground v.1.15,2013-01-10 15:27:00,
2013-01-10 10:31:00,42.4,39.4,30.55,East,92,0.0,0.0,89,0.00,,,0.00,Wunderground v.1.15,2013-01-10 15:31:00,
2013-01-10 10:33:00,42.5,39.5,30.55,East,92,0.0,0.0,89,0.00,,,0.00,Wunderground v.1.15,2013-01-10 15:33:00,
2013-01-10 10:34:00,42.5,39.5,30.55,East,92,0.0,0.0,89,0.00,,,0.00,Wunderground v.1.15,2013-01-10 15:34:00,
2013-01-10 10:36:00,42.5,39.5,30.56,East,92,0.0,0.0,89,0.00,,,0.00,Wunderground v.1.15,2013-01-10 15:36:00,
2013-01-10 10:39:00,42.6,39.6,30.56,East,92,0.0,0.0,89,0.00,,,0.00,Wunderground v.1.15,2013-01-10 15:39:00,
2013-01-10 10:41:00,42.7,39.7,30.55,East,92,0.0,0.0,89,0.00,,,0.00,Wunderground v.1.15,2013-01-10 15:41:00,
2013-01-10 10:42:00,42.7,39.7,30.55,East,92,0.0,0.0,89,0.00,,,0.00,Wunderground v.1.15,2013-01-10 15:42:00,
2013-01-10 10:45:00,42.8,40.1,30.54,East,92,0.0,0.0,90,0.00,,,0.00,Wunderground v.1.15,2013-01-10 15:45:00,
2013-01-10 10:47:00,42.8,40.1,30.55,East,93,0.0,0.0,90,0.00,,,0.00,Wunderground v.1.15,2013-01-10 15:47:00,
2013-01-10 10:50:00,42.9,40.2,30.55,SSE,152,0.0,0.0,90,0.00,,,0.00,Wunderground v.1.15,2013-01-10 15:50:00,
2013-01-10 10:51:00,43.0,40.3,30.55,SE,134,0.0,0.0,90,0.00,,,0.00,Wunderground v.1.15,2013-01-10 15:51:00,
2013-01-10 10:53:00,43.0,40.3,30.55,ESE,117,0.0,0.0,90,0.00,,,0.00,Wunderground v.1.15,2013-01-10 15:53:00,
2013-01-10 10:55:00,43.1,40.4,30.54,ESE,107,0.0,0.0,90,0.00,,,0.00,Wunderground v.1.15,2013-01-10 15:55:00,
2013-01-10 10:57:00,43.2,40.5,30.55,ESE,107,0.0,0.0,90,0.00,,,0.00,Wunderground v.1.15,2013-01-10 15:57:00,
2013-01-10 10:59:00,43.3,40.8,30.54,ESE,107,0.0,0.0,91,0.00,,,0.00,Wunderground v.1.15,2013-01-10 15:59:00,
2013-01-10 11:03:00,43.4,40.9,30.55,East,100,0.0,0.0,91,0.00,,,0.00,Wunderground v.1.15,2013-01-10 16:03:00,
2013-01-10 11:05:00,43.4,40.9,30.55,East,100,0.0,0.0,91,0.00,,,0.00,Wunderground v.1.15,2013-01-10 16:05:00,
2013-01-10 11:06:00,43.5,41.0,30.55,East,100,0.0,0.0,91,0.00,,,0.00,Wunderground v.1.15,2013-01-10 16:06:00,
2013-01-10 11:07:00,43.5,41.0,30.55,East,100,0.0,0.0,91,0.00,,,0.00,Wunderground v.1.15,2013-01-10 16:07:00,
2013-01-10 11:08:00,43.5,41.0,30.54,East,100,0.0,1.0,91,0.00,,,0.00,Wunderground v.1.15,2013-01-10 16:08:00,
2013-01-10 11:11:00,43.6,41.1,30.54,East,99,0.0,0.0,91,0.00,,,0.00,Wunderground v.1.15,2013-01-10 16:11:00,
2013-01-10 11:13:00,43.6,41.1,30.54,East,94,0.0,0.0,91,0.00,,,0.00,Wunderground v.1.15,2013-01-10 16:13:00,
2013-01-10 11:14:00,43.6,41.1,30.54,East,94,0.0,0.0,91,0.00,,,0.00,Wunderground v.1.15,2013-01-10 16:14:00,
2013-01-10 11:16:00,43.7,41.5,30.54,ESE,106,0.0,0.0,92,0.00,,,0.00,Wunderground v.1.15,2013-01-10 16:16:00,
2013-01-10 11:17:00,43.7,41.5,30.54,ESE,103,0.0,0.0,92,0.00,,,0.00,Wunderground v.1.15,2013-01-10 16:17:00,
2013-01-10 11:20:00,43.8,41.3,30.53,East,97,0.0,1.0,91,0.00,,,0.00,Wunderground v.1.15,2013-01-10 16:20:00,
2013-01-10 11:24:00,43.8,41.6,30.53,ESE,105,0.0,1.0,92,0.00,,,0.00,Wunderground v.1.15,2013-01-10 16:24:00,
2013-01-10 11:27:00,43.8,41.6,30.52,ESE,102,0.0,1.0,92,0.00,,,0.00,Wunderground v.1.15,2013-01-10 16:27:00,
2013-01-10 11:28:00,43.8,41.6,30.52,East,98,0.0,1.0,92,0.00,,,0.01,Wunderground v.1.15,2013-01-10 16:28:00,
2013-01-10 11:29:00,43.8,41.6,30.52,SE,125,0.0,1.0,92,0.00,,,0.01,Wunderground v.1.15,2013-01-10 16:29:00,
2013-01-10 11:31:00,43.8,41.6,30.52,ESE,116,0.0,0.0,92,0.00,,,0.01,Wunderground v.1.15,2013-01-10 16:31:00,
2013-01-10 11:34:00,43.8,41.6,30.52,ESE,103,0.0,1.0,92,0.00,,,0.01,Wunderground v.1.15,2013-01-10 16:34:00,
2013-01-10 11:35:00,43.8,41.6,30.51,East,82,0.0,1.0,92,0.00,,,0.01,Wunderground v.1.15,2013-01-10 16:35:00,
2013-01-10 11:37:00,43.8,41.9,30.51,ESE,109,0.0,1.0,93,0.00,,,0.01,Wunderground v.1.15,2013-01-10 16:37:00,
2013-01-10 11:40:00,43.8,41.9,30.52,ESE,116,0.0,0.0,93,0.00,,,0.01,Wunderground v.1.15,2013-01-10 16:40:00,
2013-01-10 11:42:00,43.8,41.9,30.52,East,82,0.0,1.0,93,0.00,,,0.01,Wunderground v.1.15,2013-01-10 16:42:00,
2013-01-10 11:43:00,43.8,41.9,30.51,ESE,102,0.0,1.0,93,0.00,,,0.01,Wunderground v.1.15,2013-01-10 16:43:00,
2013-01-10 11:47:00,43.8,41.9,30.51,ESE,107,0.0,1.0,93,0.00,,,0.01,Wunderground v.1.15,2013-01-10 16:47:00,
2013-01-10 11:48:00,43.8,41.9,30.51,ESE,105,0.0,1.0,93,0.00,,,0.01,Wunderground v.1.15,2013-01-10 16:48:00,
2013-01-10 11:49:00,43.8,41.9,30.51,ESE,105,0.0,1.0,93,0.00,,,0.01,Wunderground v.1.15,2013-01-10 16:49:00,
2013-01-10 11:51:00,43.8,41.9,30.51,East,97,0.0,0.0,93,0.00,,,0.01,Wunderground v.1.15,2013-01-10 16:51:00,
2013-01-10 11:52:00,43.8,41.9,30.51,East,97,0.0,0.0,93,0.00,,,0.01,Wunderground v.1.15,2013-01-10 16:52:00,
2013-01-10 11:56:00,43.8,41.9,30.50,East,100,0.0,0.0,93,0.00,,,0.01,Wunderground v.1.15,2013-01-10 16:56:00,
2013-01-10 11:57:00,43.8,41.9,30.51,East,100,0.0,0.0,93,0.00,,,0.01,Wunderground v.1.15,2013-01-10 16:57:00,
2013-01-10 11:58:00,43.8,41.9,30.51,East,100,0.0,0.0,93,0.00,,,0.01,Wunderground v.1.15,2013-01-10 16:58:00,
2013-01-10 12:00:00,43.8,41.9,30.50,ESE,106,0.0,0.0,93,0.00,,,0.01,Wunderground v.1.15,2013-01-10 17:00:00,
2013-01-10 12:01:00,43.8,41.9,30.50,ESE,106,0.0,0.0,93,0.00,,,0.01,Wunderground v.1.15,2013-01-10 17:01:00,
2013-01-10 12:03:00,43.9,42.3,30.50,ESE,103,0.0,1.0,94,0.00,,,0.01,Wunderground v.1.15,2013-01-10 17:03:00,
2013-01-10 12:06:00,44.0,42.4,30.50,ESE,103,0.0,1.0,94,0.00,,,0.02,Wunderground v.1.15,2013-01-10 17:06:00,
2013-01-10 12:07:00,44.0,42.4,30.50,ESE,103,0.0,1.0,94,0.00,,,0.02,Wunderground v.1.15,2013-01-10 17:07:00,
2013-01-10 12:11:00,44.1,42.5,30.50,East,91,0.0,0.0,94,0.00,,,0.02,Wunderground v.1.15,2013-01-10 17:11:00,
2013-01-10 12:12:00,44.1,42.5,30.50,East,91,0.0,0.0,94,0.00,,,0.02,Wunderground v.1.15,2013-01-10 17:12:00,
2013-01-10 12:16:00,44.2,42.6,30.50,SE,126,0.0,0.0,94,0.00,,,0.02,Wunderground v.1.15,2013-01-10 17:16:00,
2013-01-10 12:17:00,44.2,42.6,30.49,ESE,123,0.0,1.0,94,0.00,,,0.02,Wunderground v.1.15,2013-01-10 17:17:00,
2013-01-10 12:18:00,44.2,42.6,30.49,ESE,103,0.0,1.0,94,0.00,,,0.02,Wunderground v.1.15,2013-01-10 17:18:00,
2013-01-10 12:19:00,44.2,42.6,30.49,ESE,103,0.0,1.0,94,0.00,,,0.02,Wunderground v.1.15,2013-01-10 17:19:00,
2013-01-10 12:22:00,44.3,42.7,30.49,ESE,107,0.0,1.0,94,0.00,,,0.02,Wunderground v.1.15,2013-01-10 17:22:00,
2013-01-10 12:25:00,44.4,42.8,30.49,ESE,106,0.0,1.0,94,0.00,,,0.02,Wunderground v.1.15,2013-01-10 17:25:00,
2013-01-10 12:27:00,44.5,42.9,30.49,ESE,107,0.0,1.0,94,0.00,,,0.02,Wunderground v.1.15,2013-01-10 17:27:00,
2013-01-10 12:28:00,44.5,42.9,30.49,ESE,105,0.0,1.0,94,0.00,,,0.02,Wunderground v.1.15,2013-01-10 17:28:00,
2013-01-10 12:29:00,44.5,42.9,30.49,ESE,106,0.0,1.0,94,0.00,,,0.02,Wunderground v.1.15,2013-01-10 17:29:00,
2013-01-10 12:34:00,44.7,43.1,30.48,East,100,0.0,0.0,94,0.00,,,0.02,Wunderground v.1.15,2013-01-10 17:34:00,
2013-01-10 12:36:00,44.9,43.3,30.48,East,89,0.0,1.0,94,0.00,,,0.02,Wunderground v.1.15,2013-01-10 17:36:00,
2013-01-10 12:39:00,45.0,43.1,30.47,ESE,105,0.0,1.0,93,0.00,,,0.02,Wunderground v.1.15,2013-01-10 17:39:00,
2013-01-10 12:41:00,45.1,43.2,30.47,East,95,1.0,1.0,93,0.00,,,0.02,Wunderground v.1.15,2013-01-10 17:41:00,
2013-01-10 12:42:00,45.1,43.2,30.47,ESE,113,1.0,1.0,93,0.00,,,0.02,Wunderground v.1.15,2013-01-10 17:42:00,
2013-01-10 12:43:00,45.2,43.3,30.47,East,97,1.0,1.0,93,0.00,,,0.02,Wunderground v.1.15,2013-01-10 17:43:00,
2013-01-10 12:47:00,45.4,43.5,30.47,ESE,109,0.0,1.0,93,0.00,,,0.02,Wunderground v.1.15,2013-01-10 17:47:00,
2013-01-10 12:49:00,45.5,43.6,30.46,ESE,111,0.0,1.0,93,0.00,,,0.02,Wunderground v.1.15,2013-01-10 17:49:00,
2013-01-10 12:50:00,45.6,43.7,30.46,ESE,103,0.0,0.0,93,0.00,,,0.02,Wunderground v.1.15,2013-01-10 17:50:00,
2013-01-10 12:54:00,45.9,43.7,30.46,ESE,120,0.0,2.0,92,0.00,,,0.02,Wunderground v.1.15,2013-01-10 17:54:00,
2013-01-10 12:55:00,46.0,43.8,30.46,East,93,0.0,2.0,92,0.00,,,0.02,Wunderground v.1.15,2013-01-10 17:55:00,
2013-01-10 12:56:00,46.0,44.1,30.46,ESE,108,0.0,2.0,93,0.00,,,0.02,Wunderground v.1.15,2013-01-10 17:56:00,
2013-01-10 12:58:00,46.1,43.9,30.46,ESE,111,0.0,2.0,92,0.00,,,0.02,Wunderground v.1.15,2013-01-10 17:58:00,
2013-01-10 12:59:00,46.1,43.9,30.46,ESE,120,0.0,2.0,92,0.00,,,0.02,Wunderground v.1.15,2013-01-10 17:59:00,
2013-01-10 13:02:00,46.3,43.8,30.45,East,98,0.0,1.0,91,0.00,,,0.02,Wunderground v.1.15,2013-01-10 18:02:00,
2013-01-10 13:03:00,46.4,44.2,30.45,ESE,104,1.0,1.0,92,0.00,,,0.02,Wunderground v.1.15,2013-01-10 18:03:00,
2013-01-10 13:04:00,46.4,43.9,30.45,ESE,105,1.0,1.0,91,0.00,,,0.02,Wunderground v.1.15,2013-01-10 18:04:00,
2013-01-10 13:05:00,46.5,44.0,30.45,East,94,1.0,1.0,91,0.00,,,0.02,Wunderground v.1.15,2013-01-10 18:05:00,
2013-01-10 13:07:00,46.6,44.1,30.45,ESE,115,0.0,2.0,91,0.00,,,0.02,Wunderground v.1.15,2013-01-10 18:07:00,
2013-01-10 13:10:00,46.6,43.8,30.45,ESE,107,0.0,0.0,90,0.00,,,0.02,Wunderground v.1.15,2013-01-10 18:10:00,
2013-01-10 13:11:00,46.7,44.2,30.45,ESE,102,0.0,1.0,91,0.00,,,0.02,Wunderground v.1.15,2013-01-10 18:11:00,
2013-01-10 13:12:00,46.7,44.2,30.45,ESE,111,0.0,1.0,91,0.00,,,0.02,Wunderground v.1.15,2013-01-10 18:12:00,
2013-01-10 13:16:00,46.8,44.0,30.45,ESE,103,0.0,5.0,90,0.00,,,0.02,Wunderground v.1.15,2013-01-10 18:16:00,
2013-01-10 13:17:00,46.8,44.0,30.45,ESE,103,0.0,5.0,90,0.00,,,0.02,Wunderground v.1.15,2013-01-10 18:17:00,
2013-01-10 13:19:00,46.8,44.0,30.45,East,94,0.0,5.0,90,0.00,,,0.02,Wunderground v.1.15,2013-01-10 18:19:00,
2013-01-10 13:22:00,46.8,43.7,30.45,ESE,104,0.0,1.0,89,0.00,,,0.02,Wunderground v.1.15,2013-01-10 18:22:00,
2013-01-10 13:23:00,46.8,44.0,30.45,ESE,111,0.0,1.0,90,0.00,,,0.02,Wunderground v.1.15,2013-01-10 18:23:00,
2013-01-10 13:24:00,46.8,44.0,30.45,ESE,111,0.0,1.0,90,0.00,,,0.02,Wunderground v.1.15,2013-01-10 18:24:00,
2013-01-10 13:27:00,46.9,44.1,30.45,East,98,0.0,1.0,90,0.00,,,0.02,Wunderground v.1.15,2013-01-10 18:27:00,
2013-01-10 13:28:00,46.9,44.1,30.45,East,98,0.0,1.0,90,0.00,,,0.02,Wunderground v.1.15,2013-01-10 18:28:00,
2013-01-10 13:29:00,46.9,44.1,30.45,ESE,115,0.0,1.0,90,0.00,,,0.02,Wunderground v.1.15,2013-01-10 18:29:00,
2013-01-10 13:32:00,46.9,43.8,30.45,SE,133,0.0,0.0,89,0.00,,,0.02,Wunderground v.1.15,2013-01-10 18:32:00,
2013-01-10 13:33:00,46.9,43.8,30.45,ESE,113,0.0,0.0,89,0.00,,,0.02,Wunderground v.1.15,2013-01-10 18:33:00,
2013-01-10 13:36:00,47.0,44.2,30.44,East,99,0.0,0.0,90,0.00,,,0.02,Wunderground v.1.15,2013-01-10 18:36:00,
2013-01-10 13:37:00,47.0,44.2,30.44,SE,128,0.0,0.0,90,0.00,,,0.02,Wunderground v.1.15,2013-01-10 18:37:00,
2013-01-10 13:38:00,47.0,44.2,30.44,ESE,114,0.0,0.0,90,0.00,,,0.02,Wunderground v.1.15,2013-01-10 18:38:00,
2013-01-10 13:42:00,47.1,44.0,30.44,East,99,0.0,0.0,89,0.00,,,0.02,Wunderground v.1.15,2013-01-10 18:42:00,
2013-01-10 13:43:00,47.1,44.0,30.44,East,97,0.0,0.0,89,0.00,,,0.02,Wunderground v.1.15,2013-01-10 18:43:00,
2013-01-10 13:46:00,47.1,44.0,30.44,ESE,107,0.0,1.0,89,0.00,,,0.02,Wunderground v.1.15,2013-01-10 18:46:00,
2013-01-10 13:47:00,47.1,44.0,30.44,ESE,107,0.0,1.0,89,0.00,,,0.02,Wunderground v.1.15,2013-01-10 18:47:00,
2013-01-10 13:50:00,47.1,44.0,30.44,East,95,0.0,0.0,89,0.00,,,0.02,Wunderground v.1.15,2013-01-10 18:50:00,
2013-01-10 13:51:00,47.1,44.0,30.44,East,95,0.0,0.0,89,0.00,,,0.02,Wunderground v.1.15,2013-01-10 18:51:00,
2013-01-10 13:55:00,47.1,44.0,30.44,East,90,0.0,0.0,89,0.00,,,0.02,Wunderground v.1.15,2013-01-10 18:55:00,
2013-01-10 13:58:00,47.1,44.0,30.43,ESE,114,0.0,0.0,89,0.00,,,0.02,Wunderground v.1.15,2013-01-10 18:58:00,
2013-01-10 14:00:00,47.1,44.0,30.44,East,86,0.0,0.0,89,0.00,,,0.02,Wunderground v.1.15,2013-01-10 19:00:00,
2013-01-10 14:01:00,47.1,44.0,30.44,East,86,0.0,0.0,89,0.00,,,0.02,Wunderground v.1.15,2013-01-10 19:01:00,
2013-01-10 14:05:00,47.2,44.1,30.44,East,84,0.0,0.0,89,0.00,,,0.02,Wunderground v.1.15,2013-01-10 19:05:00,
2013-01-10 14:07:00,47.2,44.1,30.44,ESE,117,0.0,0.0,89,0.00,,,0.02,Wunderground v.1.15,2013-01-10 19:07:00,
2013-01-10 14:08:00,47.2,44.1,30.43,East,96,0.0,0.0,89,0.00,,,0.02,Wunderground v.1.15,2013-01-10 19:08:00,
2013-01-10 14:09:00,47.2,44.1,30.43,East,97,0.0,0.0,89,0.00,,,0.02,Wunderground v.1.15,2013-01-10 19:09:00,
2013-01-10 14:11:00,47.2,44.1,30.43,East,98,0.0,0.0,89,0.00,,,0.02,Wunderground v.1.15,2013-01-10 19:11:00,
2013-01-10 14:13:00,47.2,44.1,30.43,ESE,112,0.0,0.0,89,0.00,,,0.02,Wunderground v.1.15,2013-01-10 19:13:00,
2013-01-10 14:16:00,47.1,44.3,30.43,ESE,112,0.0,1.0,90,0.00,,,0.02,Wunderground v.1.15,2013-01-10 19:16:00,
2013-01-10 14:17:00,47.1,44.3,30.43,ESE,112,0.0,1.0,90,0.00,,,0.02,Wunderground v.1.15,2013-01-10 19:17:00,
2013-01-10 14:19:00,47.0,44.2,30.43,ESE,107,0.0,1.0,90,0.00,,,0.02,Wunderground v.1.15,2013-01-10 19:19:00,
2013-01-10 14:21:00,46.9,44.1,30.43,ESE,107,0.0,0.0,90,0.00,,,0.02,Wunderground v.1.15,2013-01-10 19:21:00,
2013-01-10 14:23:00,46.9,44.1,30.43,ESE,107,0.0,0.0,90,0.00,,,0.02,Wunderground v.1.15,2013-01-10 19:23:00,
2013-01-10 14:25:00,47.0,44.5,30.42,ESE,107,0.0,0.0,91,0.00,,,0.02,Wunderground v.1.15,2013-01-10 19:25:00,
2013-01-10 14:26:00,46.9,44.4,30.43,ESE,107,0.0,0.0,91,0.00,,,0.02,Wunderground v.1.15,2013-01-10 19:26:00,
2013-01-10 14:27:00,46.9,44.4,30.43,ESE,107,0.0,0.0,91,0.00,,,0.02,Wunderground v.1.15,2013-01-10 19:27:00,
2013-01-10 14:32:00,47.0,44.8,30.42,East,96,0.0,0.0,92,0.00,,,0.02,Wunderground v.1.15,2013-01-10 19:32:00,
2013-01-10 14:33:00,47.0,44.8,30.42,East,100,0.0,0.0,92,0.00,,,0.02,Wunderground v.1.15,2013-01-10 19:33:00,
2013-01-10 14:34:00,47.0,44.8,30.42,ESE,105,0.0,0.0,92,0.00,,,0.02,Wunderground v.1.15,2013-01-10 19:34:00,
2013-01-10 14:38:00,47.0,44.8,30.42,ESE,107,0.0,1.0,92,0.00,,,0.02,Wunderground v.1.15,2013-01-10 19:38:00,
2013-01-10 14:39:00,47.0,44.8,30.42,ESE,104,0.0,1.0,92,0.00,,,0.02,Wunderground v.1.15,2013-01-10 19:39:00,
2013-01-10 14:45:00,47.1,44.9,30.41,ESE,107,0.0,1.0,92,0.00,,,0.02,Wunderground v.1.15,2013-01-10 19:45:00,
2013-01-10 14:47:00,47.1,44.6,30.41,East,86,0.0,1.0,91,0.00,,,0.02,Wunderground v.1.15,2013-01-10 19:47:00,
2013-01-10 14:48:00,47.1,44.9,30.41,ESE,107,0.0,1.0,92,0.00,,,0.02,Wunderground v.1.15,2013-01-10 19:48:00,
2013-01-10 14:51:00,47.2,44.7,30.41,East,101,0.0,0.0,91,0.00,,,0.02,Wunderground v.1.15,2013-01-10 19:51:00,
2013-01-10 14:53:00,47.2,44.7,30.41,East,93,0.0,0.0,91,0.00,,,0.02,Wunderground v.1.15,2013-01-10 19:53:00,
2013-01-10 14:54:00,47.2,44.7,30.41,ESE,106,0.0,0.0,91,0.00,,,0.02,Wunderground v.1.15,2013-01-10 19:54:00,
2013-01-10 14:58:00,47.2,44.7,30.41,East,98,0.0,1.0,91,0.00,,,0.02,Wunderground v.1.15,2013-01-10 19:58:00,
2013-01-10 14:59:00,47.3,44.8,30.41,East,98,0.0,1.0,91,0.00,,,0.02,Wunderground v.1.15,2013-01-10 19:59:00,
2013-01-10 15:01:00,47.3,44.8,30.41,ESE,107,0.0,0.0,91,0.00,,,0.02,Wunderground v.1.15,2013-01-10 20:01:00,
2013-01-10 15:03:00,47.4,44.9,30.41,ESE,102,0.0,0.0,91,0.00,,,0.02,Wunderground v.1.15,2013-01-10 20:03:00,
2013-01-10 15:07:00,47.4,44.9,30.41,ESE,109,0.0,0.0,91,0.00,,,0.02,Wunderground v.1.15,2013-01-10 20:07:00,
2013-01-10 15:08:00,47.5,45.0,30.41,ESE,108,0.0,0.0,91,0.00,,,0.02,Wunderground v.1.15,2013-01-10 20:08:00,
2013-01-10 15:10:00,47.5,45.0,30.41,ESE,111,0.0,0.0,91,0.00,,,0.02,Wunderground v.1.15,2013-01-10 20:10:00,
2013-01-10 15:14:00,47.6,45.1,30.41,SE,139,0.0,0.0,91,0.00,,,0.02,Wunderground v.1.15,2013-01-10 20:14:00,
2013-01-10 15:15:00,47.6,45.1,30.41,ESE,123,0.0,0.0,91,0.00,,,0.02,Wunderground v.1.15,2013-01-10 20:15:00,
2013-01-10 15:17:00,47.6,45.1,30.41,East,98,0.0,0.0,91,0.00,,,0.02,Wunderground v.1.15,2013-01-10 20:17:00,
2013-01-10 15:20:00,47.7,45.2,30.41,SE,134,0.0,0.0,91,0.00,,,0.02,Wunderground v.1.15,2013-01-10 20:20:00,
2013-01-10 15:22:00,47.7,45.2,30.41,SE,135,0.0,0.0,91,0.00,,,0.02,Wunderground v.1.15,2013-01-10 20:22:00,
2013-01-10 15:24:00,47.7,45.2,30.41,SE,135,0.0,0.0,91,0.00,,,0.02,Wunderground v.1.15,2013-01-10 20:24:00,
2013-01-10 15:28:00,47.9,45.4,30.40,ESE,107,0.0,0.0,91,0.00,,,0.02,Wunderground v.1.15,2013-01-10 20:28:00,
2013-01-10 15:29:00,47.9,45.4,30.40,ESE,103,0.0,0.0,91,0.00,,,0.02,Wunderground v.1.15,2013-01-10 20:29:00,
2013-01-10 15:30:00,47.9,45.4,30.40,ESE,105,0.0,0.0,91,0.00,,,0.02,Wunderground v.1.15,2013-01-10 20:30:00,
2013-01-10 15:34:00,47.9,45.1,30.40,East,99,0.0,1.0,90,0.00,,,0.02,Wunderground v.1.15,2013-01-10 20:34:00,
2013-01-10 15:35:00,48.0,45.2,30.40,East,99,0.0,1.0,90,0.00,,,0.02,Wunderground v.1.15,2013-01-10 20:35:00,
2013-01-10 15:37:00,48.0,45.2,30.40,East,101,0.0,1.0,90,0.00,,,0.02,Wunderground v.1.15,2013-01-10 20:37:00,
2013-01-10 15:41:00,48.1,45.0,30.40,East,99,0.0,1.0,89,0.00,,,0.02,Wunderground v.1.15,2013-01-10 20:41:00,
2013-01-10 15:42:00,48.1,45.3,30.40,East,94,0.0,1.0,90,0.00,,,0.02,Wunderground v.1.15,2013-01-10 20:42:00,
2013-01-10 15:43:00,48.1,45.0,30.40,East,100,0.0,1.0,89,0.00,,,0.02,Wunderground v.1.15,2013-01-10 20:43:00,
2013-01-10 15:46:00,48.1,45.3,30.40,East,101,0.0,1.0,90,0.00,,,0.02,Wunderground v.1.15,2013-01-10 20:46:00,
2013-01-10 15:47:00,48.1,45.3,30.40,East,101,0.0,1.0,90,0.00,,,0.02,Wunderground v.1.15,2013-01-10 20:47:00,
2013-01-10 15:52:00,48.3,45.2,30.40,East,80,0.0,0.0,89,0.00,,,0.02,Wunderground v.1.15,2013-01-10 20:52:00,
2013-01-10 15:53:00,48.3,45.2,30.40,East,86,0.0,0.0,89,0.00,,,0.02,Wunderground v.1.15,2013-01-10 20:53:00,
2013-01-10 15:58:00,48.4,45.3,30.41,ESE,121,0.0,0.0,89,0.00,,,0.02,Wunderground v.1.15,2013-01-10 20:58:00,
2013-01-10 15:59:00,48.4,45.3,30.41,ESE,107,0.0,0.0,89,0.00,,,0.02,Wunderground v.1.15,2013-01-10 20:59:00,
2013-01-10 16:03:00,48.5,45.4,30.41,SE,125,0.0,1.0,89,0.00,,,0.02,Wunderground v.1.15,2013-01-10 21:03:00,
2013-01-10 16:05:00,48.6,45.5,30.41,ESE,117,0.0,1.0,89,0.00,,,0.02,Wunderground v.1.15,2013-01-10 21:05:00,
2013-01-10 16:09:00,48.7,45.6,30.40,SE,146,0.0,1.0,89,0.00,,,0.02,Wunderground v.1.15,2013-01-10 21:09:00,
2013-01-10 16:11:00,48.7,45.6,30.40,ESE,103,0.0,0.0,89,0.00,,,0.02,Wunderground v.1.15,2013-01-10 21:11:00,
2013-01-10 16:13:00,48.9,46.1,30.39,East,95,0.0,0.0,90,0.00,,,0.02,Wunderground v.1.15,2013-01-10 21:13:00,
2013-01-10 16:14:00,48.9,45.8,30.39,ESE,105,0.0,0.0,89,0.00,,,0.02,Wunderground v.1.15,2013-01-10 21:14:00,
2013-01-10 16:19:00,49.1,46.0,30.39,South,179,0.0,1.0,89,0.00,,,0.02,Wunderground v.1.15,2013-01-10 21:19:00,
2013-01-10 16:20:00,49.1,45.7,30.39,SE,128,0.0,0.0,88,0.00,,,0.02,Wunderground v.1.15,2013-01-10 21:20:00,
2013-01-10 16:23:00,49.2,45.8,30.39,ESE,114,0.0,0.0,88,0.00,,,0.02,Wunderground v.1.15,2013-01-10 21:23:00,
2013-01-10 16:27:00,49.3,46.2,30.39,ESE,111,0.0,0.0,89,0.00,,,0.02,Wunderground v.1.15,2013-01-10 21:27:00,
2013-01-10 16:30:00,49.3,45.9,30.39,ESE,106,0.0,1.0,88,0.00,,,0.02,Wunderground v.1.15,2013-01-10 21:30:00,
2013-01-10 16:32:00,49.3,45.9,30.39,ESE,108,0.0,1.0,88,0.00,,,0.02,Wunderground v.1.15,2013-01-10 21:32:00,
2013-01-10 16:36:00,49.4,46.0,30.38,ESE,118,0.0,1.0,88,0.00,,,0.02,Wunderground v.1.15,2013-01-10 21:36:00,
2013-01-10 16:37:00,49.4,46.0,30.38,ESE,112,0.0,1.0,88,0.00,,,0.02,Wunderground v.1.15,2013-01-10 21:37:00,
2013-01-10 16:42:00,49.5,46.1,30.38,ESE,102,0.0,0.0,88,0.00,,,0.02,Wunderground v.1.15,2013-01-10 21:42:00,
2013-01-10 16:43:00,49.5,46.1,30.38,ESE,103,0.0,1.0,88,0.00,,,0.02,Wunderground v.1.15,2013-01-10 21:43:00,
2013-01-10 16:44:00,49.5,46.1,30.38,ESE,109,0.0,1.0,88,0.00,,,0.02,Wunderground v.1.15,2013-01-10 21:44:00,
2013-01-10 16:48:00,49.5,45.8,30.38,ESE,107,0.0,1.0,87,0.00,,,0.02,Wunderground v.1.15,2013-01-10 21:48:00,
2013-01-10 16:50:00,49.5,45.8,30.37,ESE,111,0.0,0.0,87,0.00,,,0.02,Wunderground v.1.15,2013-01-10 21:50:00,
2013-01-10 16:53:00,49.5,45.8,30.37,ESE,112,0.0,1.0,87,0.00,,,0.02,Wunderground v.1.15,2013-01-10 21:53:00,
2013-01-10 16:54:00,49.5,45.8,30.38,ESE,111,0.0,1.0,87,0.00,,,0.02,Wunderground v.1.15,2013-01-10 21:54:00,
2013-01-10 16:59:00,49.5,45.8,30.37,ESE,106,0.0,1.0,87,0.00,,,0.02,Wunderground v.1.15,2013-01-10 21:59:00,
2013-01-10 17:04:00,49.5,45.8,30.38,ESE,115,0.0,1.0,87,0.00,,,0.02,Wunderground v.1.15,2013-01-10 22:04:00,
2013-01-10 17:05:00,49.5,45.8,30.38,ESE,115,0.0,1.0,87,0.00,,,0.02,Wunderground v.1.15,2013-01-10 22:05:00,
2013-01-10 17:11:00,49.4,45.7,30.37,ESE,110,0.0,1.0,87,0.00,,,0.02,Wunderground v.1.15,2013-01-10 22:11:00,
2013-01-10 17:14:00,49.3,45.6,30.38,ESE,110,0.0,1.0,87,0.00,,,0.02,Wunderground v.1.15,2013-01-10 22:14:00,
2013-01-10 17:17:00,49.2,45.5,30.38,ESE,110,0.0,1.0,87,0.00,,,0.02,Wunderground v.1.15,2013-01-10 22:17:00,
2013-01-10 17:18:00,49.2,45.5,30.37,ESE,112,0.0,1.0,87,0.00,,,0.02,Wunderground v.1.15,2013-01-10 22:18:00,
2013-01-10 17:19:00,49.2,45.5,30.38,ESE,113,0.0,1.0,87,0.00,,,0.02,Wunderground v.1.15,2013-01-10 22:19:00,
2013-01-10 17:23:00,49.2,45.5,30.37,ESE,111,0.0,0.0,87,0.00,,,0.02,Wunderground v.1.15,2013-01-10 22:23:00,
2013-01-10 17:24:00,49.1,45.4,30.37,ESE,111,0.0,0.0,87,0.00,,,0.02,Wunderground v.1.15,2013-01-10 22:24:00,
2013-01-10 17:30:00,49.1,45.4,30.37,ESE,111,0.0,0.0,87,0.00,,,0.02,Wunderground v.1.15,2013-01-10 22:30:00,
2013-01-10 17:31:00,49.1,45.4,30.37,ESE,111,0.0,0.0,87,0.00,,,0.02,Wunderground v.1.15,2013-01-10 22:31:00,
2013-01-10 17:35:00,49.1,45.4,30.37,ESE,111,0.0,1.0,87,0.00,,,0.02,Wunderground v.1.15,2013-01-10 22:35:00,
2013-01-10 17:38:00,49.0,45.3,30.37,ESE,110,0.0,1.0,87,0.00,,,0.02,Wunderground v.1.15,2013-01-10 22:38:00,
2013-01-10 17:39:00,49.0,45.3,30.37,ESE,111,0.0,1.0,87,0.00,,,0.02,Wunderground v.1.15,2013-01-10 22:39:00,
2013-01-10 17:42:00,49.0,45.3,30.36,ESE,111,0.0,1.0,87,0.00,,,0.02,Wunderground v.1.15,2013-01-10 22:42:00,
2013-01-10 17:43:00,49.0,45.3,30.37,ESE,111,0.0,1.0,87,0.00,,,0.02,Wunderground v.1.15,2013-01-10 22:43:00,
2013-01-10 17:48:00,49.0,45.3,30.37,ESE,111,0.0,1.0,87,0.00,,,0.02,Wunderground v.1.15,2013-01-10 22:48:00,
2013-01-10 17:49:00,49.0,45.3,30.37,ESE,111,0.0,1.0,87,0.00,,,0.02,Wunderground v.1.15,2013-01-10 22:49:00,
2013-01-10 17:53:00,49.0,45.3,30.36,ESE,111,0.0,0.0,87,0.00,,,0.02,Wunderground v.1.15,2013-01-10 22:53:00,
2013-01-10 17:55:00,49.0,45.3,30.36,ESE,111,0.0,1.0,87,0.00,,,0.02,Wunderground v.1.15,2013-01-10 22:55:00,
2013-01-10 17:57:00,48.9,45.2,30.36,ESE,111,0.0,1.0,87,0.00,,,0.02,Wunderground v.1.15,2013-01-10 22:57:00,
2013-01-10 18:01:00,48.9,45.2,30.36,ESE,111,0.0,0.0,87,0.00,,,0.02,Wunderground v.1.15,2013-01-10 23:01:00,
2013-01-10 18:02:00,48.9,45.2,30.36,ESE,111,0.0,0.0,87,0.00,,,0.02,Wunderground v.1.15,2013-01-10 23:02:00,
2013-01-10 18:03:00,48.9,45.2,30.36,ESE,111,0.0,1.0,87,0.00,,,0.02,Wunderground v.1.15,2013-01-10 23:03:00,
2013-01-10 18:07:00,49.0,45.3,30.36,ESE,110,0.0,1.0,87,0.00,,,0.02,Wunderground v.1.15,2013-01-10 23:07:00,
2013-01-10 18:08:00,49.0,45.3,30.36,ESE,111,0.0,1.0,87,0.00,,,0.02,Wunderground v.1.15,2013-01-10 23:08:00,
2013-01-10 18:09:00,49.0,45.3,30.36,ESE,110,0.0,1.0,87,0.00,,,0.02,Wunderground v.1.15,2013-01-10 23:09:00,
2013-01-10 18:14:00,49.0,45.3,30.36,ESE,110,0.0,1.0,87,0.00,,,0.02,Wunderground v.1.15,2013-01-10 23:14:00,
2013-01-10 18:16:00,48.9,45.2,30.36,ESE,110,0.0,1.0,87,0.00,,,0.02,Wunderground v.1.15,2013-01-10 23:16:00,
2013-01-10 18:19:00,48.8,45.1,30.36,ESE,110,0.0,1.0,87,0.00,,,0.02,Wunderground v.1.15,2013-01-10 23:19:00,
2013-01-10 18:22:00,48.8,45.1,30.35,ESE,109,0.0,0.0,87,0.00,,,0.02,Wunderground v.1.15,2013-01-10 23:22:00,
2013-01-10 18:23:00,48.8,45.1,30.35,ESE,109,0.0,0.0,87,0.00,,,0.02,Wunderground v.1.15,2013-01-10 23:23:00,
2013-01-10 18:27:00,48.7,45.0,30.35,ESE,109,0.0,1.0,87,0.00,,,0.02,Wunderground v.1.15,2013-01-10 23:27:00,
2013-01-10 18:30:00,48.7,45.0,30.35,ESE,109,0.0,0.0,87,0.00,,,0.02,Wunderground v.1.15,2013-01-10 23:30:00,
2013-01-10 18:32:00,48.8,45.1,30.35,ESE,109,0.0,0.0,87,0.00,,,0.02,Wunderground v.1.15,2013-01-10 23:32:00,
2013-01-10 18:35:00,48.8,45.1,30.35,ESE,105,0.0,0.0,87,0.00,,,0.02,Wunderground v.1.15,2013-01-10 23:35:00,
2013-01-10 18:36:00,48.8,45.1,30.35,East,101,0.0,1.0,87,0.00,,,0.02,Wunderground v.1.15,2013-01-10 23:36:00,
2013-01-10 18:42:00,48.8,45.1,30.35,ESE,103,0.0,0.0,87,0.00,,,0.02,Wunderground v.1.15,2013-01-10 23:42:00,
2013-01-10 18:43:00,48.8,45.1,30.35,ESE,116,0.0,0.0,87,0.00,,,0.02,Wunderground v.1.15,2013-01-10 23:43:00,
2013-01-10 18:46:00,48.8,45.1,30.35,ESE,111,0.0,0.0,87,0.00,,,0.02,Wunderground v.1.15,2013-01-10 23:46:00,
2013-01-10 18:47:00,48.8,45.1,30.35,ESE,111,0.0,0.0,87,0.00,,,0.02,Wunderground v.1.15,2013-01-10 23:47:00,
2013-01-10 18:49:00,48.8,45.1,30.35,East,101,0.0,1.0,87,0.00,,,0.02,Wunderground v.1.15,2013-01-10 23:49:00,
2013-01-10 18:53:00,48.8,45.1,30.35,ESE,109,0.0,0.0,87,0.00,,,0.02,Wunderground v.1.15,2013-01-10 23:53:00,
2013-01-10 18:54:00,48.8,45.1,30.35,ESE,110,0.0,0.0,87,0.00,,,0.02,Wunderground v.1.15,2013-01-10 23:54:00,
2013-01-10 18:55:00,48.7,45.0,30.35,ESE,109,0.0,0.0,87,0.00,,,0.02,Wunderground v.1.15,2013-01-10 23:55:00,
2013-01-10 18:58:00,48.8,45.4,30.35,ESE,107,0.0,1.0,88,0.00,,,0.02,Wunderground v.1.15,2013-01-10 23:58:00,
2013-01-10 19:01:00,48.8,45.4,30.35,ESE,109,0.0,1.0,88,0.00,,,0.02,Wunderground v.1.15,2013-01-11 00:01:00,
2013-01-10 19:03:00,48.8,45.4,30.35,ESE,108,0.0,1.0,88,0.00,,,0.02,Wunderground v.1.15,2013-01-11 00:03:00,
2013-01-10 19:04:00,48.8,45.4,30.35,East,100,0.0,1.0,88,0.00,,,0.02,Wunderground v.1.15,2013-01-11 00:04:00,
2013-01-10 19:09:00,48.8,45.4,30.34,ESE,108,0.0,1.0,88,0.00,,,0.02,Wunderground v.1.15,2013-01-11 00:09:00,
2013-01-10 19:14:00,48.7,45.3,30.34,ESE,118,0.0,0.0,88,0.00,,,0.02,Wunderground v.1.15,2013-01-11 00:14:00,
2013-01-10 19:15:00,48.7,45.3,30.34,ESE,111,0.0,0.0,88,0.00,,,0.02,Wunderground v.1.15,2013-01-11 00:15:00,
2013-01-10 19:16:00,48.7,45.3,30.34,ESE,107,0.0,0.0,88,0.00,,,0.02,Wunderground v.1.15,2013-01-11 00:16:00,
2013-01-10 19:20:00,48.7,45.3,30.34,ESE,107,0.0,0.0,88,0.00,,,0.02,Wunderground v.1.15,2013-01-11 00:20:00,
2013-01-10 19:22:00,48.7,45.3,30.33,ESE,109,0.0,0.0,88,0.00,,,0.02,Wunderground v.1.15,2013-01-11 00:22:00,
2013-01-10 19:26:00,48.7,45.3,30.33,ESE,120,0.0,0.0,88,0.00,,,0.02,Wunderground v.1.15,2013-01-11 00:26:00,
2013-01-10 19:27:00,48.7,45.3,30.33,ESE,120,0.0,0.0,88,0.00,,,0.02,Wunderground v.1.15,2013-01-11 00:27:00,
2013-01-10 19:29:00,48.6,45.2,30.33,ESE,117,0.0,0.0,88,0.00,,,0.02,Wunderground v.1.15,2013-01-11 00:29:00,
2013-01-10 19:32:00,48.6,45.2,30.33,ESE,114,0.0,1.0,88,0.00,,,0.02,Wunderground v.1.15,2013-01-11 00:32:00,
2013-01-10 19:33:00,48.6,45.5,30.33,ESE,111,0.0,1.0,89,0.00,,,0.02,Wunderground v.1.15,2013-01-11 00:33:00,
2013-01-10 19:35:00,48.6,45.5,30.33,ESE,109,0.0,2.0,89,0.00,,,0.02,Wunderground v.1.15,2013-01-11 00:35:00,
2013-01-10 19:39:00,48.7,45.6,30.33,SE,134,0.0,2.0,89,0.00,,,0.02,Wunderground v.1.15,2013-01-11 00:39:00,
2013-01-10 19:42:00,48.7,45.6,30.33,ESE,115,0.0,0.0,89,0.00,,,0.02,Wunderground v.1.15,2013-01-11 00:42:00,
2013-01-10 19:45:00,48.7,45.6,30.32,ESE,123,0.0,0.0,89,0.00,,,0.02,Wunderground v.1.15,2013-01-11 00:45:00,
2013-01-10 19:47:00,48.7,45.6,30.32,ESE,109,0.0,0.0,89,0.00,,,0.02,Wunderground v.1.15,2013-01-11 00:47:00,
2013-01-10 19:50:00,48.7,45.6,30.32,SE,142,0.0,0.0,89,0.00,,,0.02,Wunderground v.1.15,2013-01-11 00:50:00,
2013-01-10 19:51:00,48.7,45.6,30.32,SE,135,0.0,0.0,89,0.00,,,0.02,Wunderground v.1.15,2013-01-11 00:51:00,
2013-01-10 19:53:00,48.7,45.6,30.32,SE,125,0.0,0.0,89,0.00,,,0.02,Wunderground v.1.15,2013-01-11 00:53:00,
2013-01-10 19:55:00,48.7,45.6,30.32,SE,125,0.0,0.0,89,0.00,,,0.02,Wunderground v.1.15,2013-01-11 00:55:00,
2013-01-10 19:58:00,48.7,45.6,30.32,ESE,107,0.0,1.0,89,0.00,,,0.02,Wunderground v.1.15,2013-01-11 00:58:00,
2013-01-10 20:01:00,48.7,45.6,30.31,ESE,107,0.0,0.0,89,0.00,,,0.02,Wunderground v.1.15,2013-01-11 01:01:00,
2013-01-10 20:02:00,48.7,45.6,30.31,SE,127,0.0,0.0,89,0.00,,,0.02,Wunderground v.1.15,2013-01-11 01:02:00,
2013-01-10 20:04:00,48.6,45.5,30.31,SE,127,0.0,0.0,89,0.00,,,0.02,Wunderground v.1.15,2013-01-11 01:04:00,
2013-01-10 20:07:00,48.6,45.5,30.31,ESE,109,0.0,1.0,89,0.00,,,0.02,Wunderground v.1.15,2013-01-11 01:07:00,
2013-01-10 20:09:00,48.7,45.6,30.31,ESE,109,0.0,1.0,89,0.00,,,0.02,Wunderground v.1.15,2013-01-11 01:09:00,
2013-01-10 20:10:00,48.7,45.6,30.31,ESE,109,0.0,0.0,89,0.00,,,0.02,Wunderground v.1.15,2013-01-11 01:10:00,
2013-01-10 20:12:00,48.7,45.6,30.31,ESE,117,0.0,1.0,89,0.00,,,0.02,Wunderground v.1.15,2013-01-11 01:12:00,
2013-01-10 20:15:00,48.8,45.7,30.30,ESE,107,0.0,1.0,89,0.00,,,0.02,Wunderground v.1.15,2013-01-11 01:15:00,
2013-01-10 20:17:00,48.8,45.7,30.30,ESE,115,0.0,1.0,89,0.00,,,0.02,Wunderground v.1.15,2013-01-11 01:17:00,
2013-01-10 20:19:00,48.8,45.7,30.30,ESE,119,0.0,2.0,89,0.00,,,0.02,Wunderground v.1.15,2013-01-11 01:19:00,
2013-01-10 20:21:00,48.8,45.7,30.30,ESE,109,0.0,0.0,89,0.00,,,0.02,Wunderground v.1.15,2013-01-11 01:21:00,
2013-01-10 20:23:00,48.8,45.7,30.30,ESE,121,0.0,1.0,89,0.00,,,0.02,Wunderground v.1.15,2013-01-11 01:23:00,
2013-01-10 20:27:00,48.8,45.7,30.30,ESE,105,0.0,1.0,89,0.00,,,0.02,Wunderground v.1.15,2013-01-11 01:27:00,
2013-01-10 20:28:00,48.8,45.7,30.30,ESE,115,0.0,1.0,89,0.00,,,0.02,Wunderground v.1.15,2013-01-11 01:28:00,
2013-01-10 20:33:00,48.9,45.8,30.30,SE,130,0.0,2.0,89,0.00,,,0.02,Wunderground v.1.15,2013-01-11 01:33:00,
2013-01-10 20:34:00,48.9,45.8,30.30,SE,126,0.0,2.0,89,0.00,,,0.02,Wunderground v.1.15,2013-01-11 01:34:00,
2013-01-10 20:38:00,49.0,45.9,30.29,SSE,153,0.0,4.0,89,0.00,,,0.02,Wunderground v.1.15,2013-01-11 01:38:00,
2013-01-10 20:40:00,49.0,45.9,30.29,SE,145,0.0,0.0,89,0.00,,,0.02,Wunderground v.1.15,2013-01-11 01:40:00,
2013-01-10 20:41:00,49.0,45.9,30.29,SE,136,0.0,0.0,89,0.00,,,0.02,Wunderground v.1.15,2013-01-11 01:41:00,
2013-01-10 20:45:00,49.1,46.0,30.29,SE,132,0.0,0.0,89,0.00,,,0.02,Wunderground v.1.15,2013-01-11 01:45:00,
2013-01-10 20:47:00,49.2,46.1,30.29,ESE,107,0.0,0.0,89,0.00,,,0.02,Wunderground v.1.15,2013-01-11 01:47:00,
2013-01-10 20:49:00,49.2,46.1,30.29,ESE,119,0.0,0.0,89,0.00,,,0.02,Wunderground v.1.15,2013-01-11 01:49:00,
2013-01-10 20:53:00,49.2,46.1,30.29,SE,129,0.0,0.0,89,0.00,,,0.02,Wunderground v.1.15,2013-01-11 01:53:00,
2013-01-10 20:54:00,49.2,46.1,30.29,SE,128,0.0,0.0,89,0.00,,,0.02,Wunderground v.1.15,2013-01-11 01:54:00,
2013-01-10 20:57:00,49.2,46.1,30.29,SE,128,0.0,0.0,89,0.00,,,0.02,Wunderground v.1.15,2013-01-11 01:57:00,
2013-01-10 20:58:00,49.2,46.1,30.29,SE,128,0.0,0.0,89,0.00,,,0.02,Wunderground v.1.15,2013-01-11 01:58:00,
2013-01-10 21:00:00,49.2,46.1,30.29,SE,142,0.0,0.0,89,0.00,,,0.02,Wunderground v.1.15,2013-01-11 02:00:00,
2013-01-10 21:02:00,49.1,46.0,30.29,SE,142,0.0,0.0,89,0.00,,,0.02,Wunderground v.1.15,2013-01-11 02:02:00,
2013-01-10 21:07:00,49.1,46.0,30.28,SE,146,0.0,0.0,89,0.00,,,0.02,Wunderground v.1.15,2013-01-11 02:07:00,
2013-01-10 21:08:00,49.1,46.0,30.28,SE,146,0.0,0.0,89,0.00,,,0.02,Wunderground v.1.15,2013-01-11 02:08:00,
2013-01-10 21:12:00,49.2,46.1,30.28,SE,124,0.0,0.0,89,0.00,,,0.02,Wunderground v.1.15,2013-01-11 02:12:00,
2013-01-10 21:13:00,49.2,46.1,30.28,SE,128,0.0,0.0,89,0.00,,,0.02,Wunderground v.1.15,2013-01-11 02:13:00,
2013-01-10 21:18:00,49.2,46.1,30.28,ESE,122,0.0,1.0,89,0.00,,,0.02,Wunderground v.1.15,2013-01-11 02:18:00,
2013-01-10 21:19:00,49.2,46.1,30.28,ESE,123,0.0,1.0,89,0.00,,,0.02,Wunderground v.1.15,2013-01-11 02:19:00,
2013-01-10 21:20:00,49.2,46.1,30.28,ESE,113,0.0,0.0,89,0.00,,,0.02,Wunderground v.1.15,2013-01-11 02:20:00,
2013-01-10 21:25:00,49.3,46.2,30.28,ESE,117,0.0,0.0,89,0.00,,,0.02,Wunderground v.1.15,2013-01-11 02:25:00,
2013-01-10 21:27:00,49.3,46.2,30.27,SE,130,0.0,0.0,89,0.00,,,0.02,Wunderground v.1.15,2013-01-11 02:27:00,
2013-01-10 21:28:00,49.3,46.2,30.27,SE,128,0.0,0.0,89,0.00,,,0.02,Wunderground v.1.15,2013-01-11 02:28:00,
2013-01-10 21:31:00,49.3,46.2,30.27,ESE,119,0.0,0.0,89,0.00,,,0.02,Wunderground v.1.15,2013-01-11 02:31:00,
2013-01-10 21:33:00,49.3,46.2,30.27,SE,142,0.0,0.0,89,0.00,,,0.02,Wunderground v.1.15,2013-01-11 02:33:00,
2013-01-10 21:35:00,49.3,46.2,30.27,SE,142,0.0,0.0,89,0.00,,,0.02,Wunderground v.1.15,2013-01-11 02:35:00,
2013-01-10 21:41:00,49.3,46.2,30.26,SE,137,0.0,0.0,89,0.00,,,0.02,Wunderground v.1.15,2013-01-11 02:41:00,
2013-01-10 21:42:00,49.3,46.2,30.26,SE,129,0.0,0.0,89,0.00,,,0.02,Wunderground v.1.15,2013-01-11 02:42:00,
2013-01-10 21:43:00,49.3,46.2,30.26,SE,130,0.0,0.0,89,0.00,,,0.02,Wunderground v.1.15,2013-01-11 02:43:00,
2013-01-10 21:47:00,49.3,46.2,30.26,SE,132,0.0,0.0,89,0.00,,,0.02,Wunderground v.1.15,2013-01-11 02:47:00,
2013-01-10 21:48:00,49.3,46.2,30.26,SE,124,0.0,0.0,89,0.00,,,0.02,Wunderground v.1.15,2013-01-11 02:48:00,
2013-01-10 21:51:00,49.2,46.1,30.26,SE,130,0.0,0.0,89,0.00,,,0.02,Wunderground v.1.15,2013-01-11 02:51:00,
2013-01-10 21:52:00,49.2,46.1,30.26,SE,132,0.0,0.0,89,0.00,,,0.02,Wunderground v.1.15,2013-01-11 02:52:00,
2013-01-10 21:55:00,49.2,46.1,30.26,SE,131,0.0,0.0,89,0.00,,,0.02,Wunderground v.1.15,2013-01-11 02:55:00,
2013-01-10 21:56:00,49.2,46.1,30.26,SE,129,0.0,0.0,89,0.00,,,0.02,Wunderground v.1.15,2013-01-11 02:56:00,
2013-01-10 21:59:00,49.2,46.1,30.25,SE,126,0.0,0.0,89,0.00,,,0.02,Wunderground v.1.15,2013-01-11 02:59:00,
2013-01-10 22:04:00,49.2,46.4,30.25,SE,128,0.0,0.0,90,0.00,,,0.02,Wunderground v.1.15,2013-01-11 03:04:00,
2013-01-10 22:05:00,49.2,46.4,30.25,SE,146,0.0,0.0,90,0.00,,,0.02,Wunderground v.1.15,2013-01-11 03:05:00,
2013-01-10 22:10:00,49.3,46.2,30.25,SE,128,0.0,0.0,89,0.00,,,0.02,Wunderground v.1.15,2013-01-11 03:10:00,
2013-01-10 22:11:00,49.3,46.2,30.25,SE,131,0.0,0.0,89,0.00,,,0.02,Wunderground v.1.15,2013-01-11 03:11:00,
2013-01-10 22:15:00,49.3,46.2,30.25,SE,127,0.0,0.0,89,0.00,,,0.02,Wunderground v.1.15,2013-01-11 03:15:00,
2013-01-10 22:17:00,49.2,46.1,30.25,SE,130,0.0,0.0,89,0.00,,,0.02,Wunderground v.1.15,2013-01-11 03:17:00,
2013-01-10 22:19:00,49.2,46.1,30.25,SE,128,0.0,1.0,89,0.00,,,0.02,Wunderground v.1.15,2013-01-11 03:19:00,
2013-01-10 22:20:00,49.2,46.1,30.25,SE,129,0.0,0.0,89,0.00,,,0.02,Wunderground v.1.15,2013-01-11 03:20:00,
2013-01-10 22:25:00,49.2,46.4,30.24,ESE,123,0.0,0.0,90,0.00,,,0.02,Wunderground v.1.15,2013-01-11 03:25:00,
2013-01-10 22:26:00,49.2,46.4,30.24,SE,133,0.0,0.0,90,0.00,,,0.02,Wunderground v.1.15,2013-01-11 03:26:00,
2013-01-10 22:29:00,49.1,46.3,30.24,SE,133,0.0,0.0,90,0.00,,,0.02,Wunderground v.1.15,2013-01-11 03:29:00,
2013-01-10 22:32:00,49.1,46.3,30.24,SE,137,0.0,0.0,90,0.00,,,0.02,Wunderground v.1.15,2013-01-11 03:32:00,
2013-01-10 22:34:00,49.1,46.3,30.24,SE,133,0.0,0.0,90,0.00,,,0.02,Wunderground v.1.15,2013-01-11 03:34:00,
2013-01-10 22:35:00,49.2,46.4,30.24,SE,131,0.0,0.0,90,0.00,,,0.02,Wunderground v.1.15,2013-01-11 03:35:00,
2013-01-10 22:38:00,49.2,46.4,30.23,SE,126,0.0,0.0,90,0.00,,,0.02,Wunderground v.1.15,2013-01-11 03:38:00,
2013-01-10 22:40:00,49.3,46.5,30.23,SE,130,0.0,0.0,90,0.00,,,0.02,Wunderground v.1.15,2013-01-11 03:40:00,
2013-01-10 22:43:00,49.4,46.6,30.23,SE,132,0.0,0.0,90,0.00,,,0.02,Wunderground v.1.15,2013-01-11 03:43:00,
2013-01-10 22:44:00,49.4,46.6,30.23,SE,141,0.0,0.0,90,0.00,,,0.02,Wunderground v.1.15,2013-01-11 03:44:00,
2013-01-10 22:46:00,49.5,46.7,30.23,ESE,115,0.0,0.0,90,0.00,,,0.02,Wunderground v.1.15,2013-01-11 03:46:00,
2013-01-10 22:48:00,49.5,46.7,30.23,SE,136,0.0,0.0,90,0.00,,,0.02,Wunderground v.1.15,2013-01-11 03:48:00,
2013-01-10 22:53:00,49.8,47.0,30.23,SE,139,0.0,0.0,90,0.00,,,0.02,Wunderground v.1.15,2013-01-11 03:53:00,
2013-01-10 22:54:00,49.8,47.0,30.23,SE,139,0.0,0.0,90,0.00,,,0.02,Wunderground v.1.15,2013-01-11 03:54:00,
2013-01-10 22:55:00,49.9,47.1,30.22,SE,136,0.0,0.0,90,0.00,,,0.02,Wunderground v.1.15,2013-01-11 03:55:00,
2013-01-10 22:59:00,50.0,47.2,30.23,SE,130,0.0,1.0,90,0.00,,,0.02,Wunderground v.1.15,2013-01-11 03:59:00,
2013-01-10 23:00:00,50.1,47.3,30.23,SE,128,0.0,0.0,90,0.00,,,0.02,Wunderground v.1.15,2013-01-11 04:00:00,
2013-01-10 23:03:00,50.3,47.2,30.23,SE,146,0.0,0.0,89,0.00,,,0.02,Wunderground v.1.15,2013-01-11 04:03:00,
2013-01-10 23:05:00,50.4,47.3,30.23,SSE,148,0.0,0.0,89,0.00,,,0.02,Wunderground v.1.15,2013-01-11 04:05:00,
2013-01-10 23:08:00,50.5,47.4,30.22,SE,130,0.0,0.0,89,0.00,,,0.02,Wunderground v.1.15,2013-01-11 04:08:00,
2013-01-10 23:12:00,50.4,47.0,30.22,SE,132,0.0,0.0,88,0.00,,,0.02,Wunderground v.1.15,2013-01-11 04:12:00,
2013-01-10 23:15:00,50.4,47.0,30.22,ESE,113,0.0,0.0,88,0.00,,,0.02,Wunderground v.1.15,2013-01-11 04:15:00,
2013-01-10 23:16:00,50.3,46.9,30.22,ESE,121,0.0,0.0,88,0.00,,,0.02,Wunderground v.1.15,2013-01-11 04:16:00,
2013-01-10 23:20:00,50.2,47.1,30.21,SE,128,0.0,0.0,89,0.00,,,0.02,Wunderground v.1.15,2013-01-11 04:20:00,
2013-01-10 23:22:00,50.2,47.1,30.21,SE,136,0.0,0.0,89,0.00,,,0.02,Wunderground v.1.15,2013-01-11 04:22:00,
2013-01-10 23:23:00,50.2,47.1,30.21,SE,132,0.0,0.0,89,0.00,,,0.02,Wunderground v.1.15,2013-01-11 04:23:00,
2013-01-10 23:28:00,50.1,47.0,30.21,SE,125,0.0,1.0,89,0.00,,,0.02,Wunderground v.1.15,2013-01-11 04:28:00,
2013-01-10 23:29:00,50.1,47.0,30.21,ESE,121,0.0,1.0,89,0.00,,,0.02,Wunderground v.1.15,2013-01-11 04:29:00,
2013-01-10 23:34:00,50.3,47.2,30.20,ESE,111,0.0,0.0,89,0.00,,,0.02,Wunderground v.1.15,2013-01-11 04:34:00,
2013-01-10 23:36:00,50.3,47.5,30.20,SSE,153,0.0,2.0,90,0.00,,,0.02,Wunderground v.1.15,2013-01-11 04:36:00,
2013-01-10 23:39:00,50.5,47.4,30.20,SE,134,0.0,2.0,89,0.00,,,0.02,Wunderground v.1.15,2013-01-11 04:39:00,
2013-01-10 23:41:00,50.6,47.5,30.20,ESE,119,0.0,0.0,89,0.00,,,0.02,Wunderground v.1.15,2013-01-11 04:41:00,
2013-01-10 23:42:00,50.7,47.6,30.20,SE,124,0.0,0.0,89,0.00,,,0.02,Wunderground v.1.15,2013-01-11 04:42:00,
2013-01-10 23:47:00,51.1,48.0,30.20,ESE,108,0.0,0.0,89,0.00,,,0.02,Wunderground v.1.15,2013-01-11 04:47:00,
2013-01-10 23:48:00,51.2,48.1,30.20,SE,125,0.0,0.0,89,0.00,,,0.02,Wunderground v.1.15,2013-01-11 04:48:00,
2013-01-10 23:52:00,51.4,48.0,30.20,ESE,113,0.0,1.0,88,0.00,,,0.02,Wunderground v.1.15,2013-01-11 04:52:00,
2013-01-10 23:53:00,51.4,48.0,30.20,ESE,115,0.0,1.0,88,0.00,,,0.02,Wunderground v.1.15,2013-01-11 04:53:00,
2013-01-10 23:54:00,51.4,48.0,30.20,ESE,107,0.0,1.0,88,0.00,,,0.02,Wunderground v.1.15,2013-01-11 04:54:00,
2013-01-10 23:59:00,51.8,48.7,30.19,SE,142,0.0,3.0,89,0.00,,,0.02,Wunderground v.1.15,2013-01-11 04:59:00,